<?xml version="1.0" encoding="UTF-8" standalone="no" ?>
<gpx xmlns="http://www.topografix.com/GPX/1/1" xmlns:xsi="http://www.w3.org/2001/XMLSchema-instance" xsi:schemaLocation="http://www.topografix.com/GPX/1/1 http://www.topografix.com/GPX/1/1/gpx.xsd" version="1.1" creator="VisuGPX - https://www.visugpx.com">
  <metadata>
    <name>Vélo - Faycelles-Carayac-St Pierre Toirac</name>
    <desc><![CDATA[File with points/tracks from Locus Map/3.45.1]]></desc>
  </metadata>
  <trk>
    <name><![CDATA[2020-05-28 11:32:53]]></name>
    <extensions>
      <line xmlns="http://www.topografix.com/GPX/gpx_style/0/2">
        <color>0000FF</color>
        <opacity>0.59</opacity>
        <width>6.0</width>
      </line>
    </extensions>
    <trkseg>
      <trkpt lat="44.56357" lon="1.98776">
        <ele>304.88</ele>
        <time>2020-05-28T09:33:06.000Z</time>
      </trkpt>
      <trkpt lat="44.56357" lon="1.98778">
        <ele>304.88</ele>
        <time>2020-05-28T09:33:16.000Z</time>
      </trkpt>
      <trkpt lat="44.56359" lon="1.98778">
        <ele>304.88</ele>
        <time>2020-05-28T09:33:27.000Z</time>
      </trkpt>
      <trkpt lat="44.56357" lon="1.98776">
        <ele>304.88</ele>
        <time>2020-05-28T09:33:37.000Z</time>
      </trkpt>
      <trkpt lat="44.56358" lon="1.98775">
        <ele>304.88</ele>
        <time>2020-05-28T09:33:51.000Z</time>
      </trkpt>
      <trkpt lat="44.56359" lon="1.98774">
        <ele>304.88</ele>
        <time>2020-05-28T09:34:04.000Z</time>
      </trkpt>
      <trkpt lat="44.56361" lon="1.98777">
        <ele>304.88</ele>
        <time>2020-05-28T09:34:14.000Z</time>
      </trkpt>
      <trkpt lat="44.56361" lon="1.98776">
        <ele>304.88</ele>
        <time>2020-05-28T09:34:24.000Z</time>
      </trkpt>
      <trkpt lat="44.56362" lon="1.98777">
        <ele>304.88</ele>
        <time>2020-05-28T09:34:36.000Z</time>
      </trkpt>
      <trkpt lat="44.56363" lon="1.98779">
        <ele>304.88</ele>
        <time>2020-05-28T09:34:46.000Z</time>
      </trkpt>
      <trkpt lat="44.56362" lon="1.98779">
        <ele>304.88</ele>
        <time>2020-05-28T09:34:57.000Z</time>
      </trkpt>
      <trkpt lat="44.56361" lon="1.98778">
        <ele>304.88</ele>
        <time>2020-05-28T09:36:03.000Z</time>
      </trkpt>
      <trkpt lat="44.5636" lon="1.98778">
        <ele>304.88</ele>
        <time>2020-05-28T09:36:19.000Z</time>
      </trkpt>
      <trkpt lat="44.56359" lon="1.98777">
        <ele>304.88</ele>
        <time>2020-05-28T09:36:29.000Z</time>
      </trkpt>
      <trkpt lat="44.56359" lon="1.98775">
        <ele>304.88</ele>
        <time>2020-05-28T09:36:39.000Z</time>
      </trkpt>
      <trkpt lat="44.56359" lon="1.98774">
        <ele>304.88</ele>
        <time>2020-05-28T09:36:51.000Z</time>
      </trkpt>
      <trkpt lat="44.5636" lon="1.98775">
        <ele>304.88</ele>
        <time>2020-05-28T09:37:03.000Z</time>
      </trkpt>
      <trkpt lat="44.56358" lon="1.98774">
        <ele>304.88</ele>
        <time>2020-05-28T09:37:13.000Z</time>
      </trkpt>
      <trkpt lat="44.56361" lon="1.98772">
        <ele>304.88</ele>
        <time>2020-05-28T09:37:23.000Z</time>
      </trkpt>
      <trkpt lat="44.56358" lon="1.98769">
        <ele>304.88</ele>
        <time>2020-05-28T09:37:33.000Z</time>
      </trkpt>
      <trkpt lat="44.56361" lon="1.98771">
        <ele>304.88</ele>
        <time>2020-05-28T09:37:43.000Z</time>
      </trkpt>
      <trkpt lat="44.56366" lon="1.98773">
        <ele>304.88</ele>
        <time>2020-05-28T09:37:53.000Z</time>
      </trkpt>
      <trkpt lat="44.56372" lon="1.98774">
        <ele>304.88</ele>
        <time>2020-05-28T09:38:03.000Z</time>
      </trkpt>
      <trkpt lat="44.56372" lon="1.98772">
        <ele>304.88</ele>
        <time>2020-05-28T09:38:19.000Z</time>
      </trkpt>
      <trkpt lat="44.56371" lon="1.98772">
        <ele>304.88</ele>
        <time>2020-05-28T09:38:34.000Z</time>
      </trkpt>
      <trkpt lat="44.56366" lon="1.98771">
        <ele>304.88</ele>
        <time>2020-05-28T09:38:44.000Z</time>
      </trkpt>
      <trkpt lat="44.56365" lon="1.9877">
        <ele>304.88</ele>
        <time>2020-05-28T09:38:54.000Z</time>
      </trkpt>
      <trkpt lat="44.56365" lon="1.98772">
        <ele>304.88</ele>
        <time>2020-05-28T09:39:04.000Z</time>
      </trkpt>
      <trkpt lat="44.56365" lon="1.98775">
        <ele>304.88</ele>
        <time>2020-05-28T09:39:14.000Z</time>
      </trkpt>
      <trkpt lat="44.56363" lon="1.98775">
        <ele>304.88</ele>
        <time>2020-05-28T09:39:24.000Z</time>
      </trkpt>
      <trkpt lat="44.56361" lon="1.98773">
        <ele>304.88</ele>
        <time>2020-05-28T09:39:34.000Z</time>
      </trkpt>
      <trkpt lat="44.5636" lon="1.98775">
        <ele>304.88</ele>
        <time>2020-05-28T09:39:44.000Z</time>
      </trkpt>
      <trkpt lat="44.56359" lon="1.98775">
        <ele>304.88</ele>
        <time>2020-05-28T09:39:54.000Z</time>
      </trkpt>
      <trkpt lat="44.56359" lon="1.98777">
        <ele>304.88</ele>
        <time>2020-05-28T09:40:04.000Z</time>
      </trkpt>
      <trkpt lat="44.56354" lon="1.98775">
        <ele>304.88</ele>
        <time>2020-05-28T09:40:14.000Z</time>
      </trkpt>
      <trkpt lat="44.56357" lon="1.98775">
        <ele>304.88</ele>
        <time>2020-05-28T09:40:24.000Z</time>
      </trkpt>
      <trkpt lat="44.56358" lon="1.98775">
        <ele>304.88</ele>
        <time>2020-05-28T09:40:35.000Z</time>
      </trkpt>
      <trkpt lat="44.5636" lon="1.98774">
        <ele>304.88</ele>
        <time>2020-05-28T09:40:45.000Z</time>
      </trkpt>
      <trkpt lat="44.56355" lon="1.98772">
        <ele>304.88</ele>
        <time>2020-05-28T09:40:55.000Z</time>
      </trkpt>
      <trkpt lat="44.56356" lon="1.98778">
        <ele>304.88</ele>
        <time>2020-05-28T09:41:05.000Z</time>
      </trkpt>
      <trkpt lat="44.56357" lon="1.98779">
        <ele>304.88</ele>
        <time>2020-05-28T09:41:23.000Z</time>
      </trkpt>
      <trkpt lat="44.56356" lon="1.98784">
        <ele>304.88</ele>
        <time>2020-05-28T09:41:33.000Z</time>
      </trkpt>
      <trkpt lat="44.56357" lon="1.9878">
        <ele>304.88</ele>
        <time>2020-05-28T09:41:43.000Z</time>
      </trkpt>
      <trkpt lat="44.56355" lon="1.98779">
        <ele>304.88</ele>
        <time>2020-05-28T09:41:53.000Z</time>
      </trkpt>
      <trkpt lat="44.56355" lon="1.98784">
        <ele>304.88</ele>
        <time>2020-05-28T09:42:03.000Z</time>
      </trkpt>
      <trkpt lat="44.56353" lon="1.98785">
        <ele>304.88</ele>
        <time>2020-05-28T09:42:13.000Z</time>
      </trkpt>
      <trkpt lat="44.56354" lon="1.98784">
        <ele>304.88</ele>
        <time>2020-05-28T09:42:23.000Z</time>
      </trkpt>
      <trkpt lat="44.56352" lon="1.98783">
        <ele>304.88</ele>
        <time>2020-05-28T09:42:36.000Z</time>
      </trkpt>
      <trkpt lat="44.56353" lon="1.98784">
        <ele>304.88</ele>
        <time>2020-05-28T09:42:48.000Z</time>
      </trkpt>
      <trkpt lat="44.56355" lon="1.98781">
        <ele>304.88</ele>
        <time>2020-05-28T09:42:58.000Z</time>
      </trkpt>
      <trkpt lat="44.56359" lon="1.98782">
        <ele>296.16</ele>
        <time>2020-05-28T09:43:08.000Z</time>
      </trkpt>
      <trkpt lat="44.56362" lon="1.98782">
        <ele>297.45</ele>
        <time>2020-05-28T09:43:18.000Z</time>
      </trkpt>
      <trkpt lat="44.56358" lon="1.98799">
        <ele>305.32</ele>
        <time>2020-05-28T09:43:28.000Z</time>
      </trkpt>
      <trkpt lat="44.56371" lon="1.98823">
        <ele>303.45</ele>
        <time>2020-05-28T09:43:38.000Z</time>
      </trkpt>
      <trkpt lat="44.56398" lon="1.98828">
        <ele>301.58</ele>
        <time>2020-05-28T09:43:48.000Z</time>
      </trkpt>
      <trkpt lat="44.56423" lon="1.98825">
        <ele>298.32</ele>
        <time>2020-05-28T09:43:58.000Z</time>
      </trkpt>
      <trkpt lat="44.56448" lon="1.98823">
        <ele>298.38</ele>
        <time>2020-05-28T09:44:08.000Z</time>
      </trkpt>
      <trkpt lat="44.56471" lon="1.98823">
        <ele>299.13</ele>
        <time>2020-05-28T09:44:18.000Z</time>
      </trkpt>
      <trkpt lat="44.56496" lon="1.98826">
        <ele>299.38</ele>
        <time>2020-05-28T09:44:28.000Z</time>
      </trkpt>
      <trkpt lat="44.56523" lon="1.98824">
        <ele>299.13</ele>
        <time>2020-05-28T09:44:38.000Z</time>
      </trkpt>
      <trkpt lat="44.56556" lon="1.9882">
        <ele>300.32</ele>
        <time>2020-05-28T09:44:47.281Z</time>
      </trkpt>
      <trkpt lat="44.56576" lon="1.98817">
        <ele>301.37</ele>
        <time>2020-05-28T09:44:57.000Z</time>
      </trkpt>
      <trkpt lat="44.566" lon="1.98819">
        <ele>301.45</ele>
        <time>2020-05-28T09:45:07.000Z</time>
      </trkpt>
      <trkpt lat="44.56633" lon="1.98828">
        <ele>301.38</ele>
        <time>2020-05-28T09:45:18.000Z</time>
      </trkpt>
      <trkpt lat="44.56659" lon="1.98843">
        <ele>303.13</ele>
        <time>2020-05-28T09:45:28.000Z</time>
      </trkpt>
      <trkpt lat="44.56682" lon="1.98853">
        <ele>303.38</ele>
        <time>2020-05-28T09:45:38.000Z</time>
      </trkpt>
      <trkpt lat="44.56708" lon="1.98858">
        <ele>302.7</ele>
        <time>2020-05-28T09:45:48.000Z</time>
      </trkpt>
      <trkpt lat="44.56696" lon="1.98833">
        <ele>305.38</ele>
        <time>2020-05-28T09:45:59.000Z</time>
      </trkpt>
      <trkpt lat="44.56668" lon="1.98816">
        <ele>304.63</ele>
        <time>2020-05-28T09:46:10.000Z</time>
      </trkpt>
      <trkpt lat="44.56666" lon="1.98818">
        <ele>316.94</ele>
        <time>2020-05-28T09:46:20.000Z</time>
      </trkpt>
      <trkpt lat="44.56665" lon="1.98815">
        <ele>316.98</ele>
        <time>2020-05-28T09:46:30.000Z</time>
      </trkpt>
      <trkpt lat="44.56667" lon="1.98814">
        <ele>316.98</ele>
        <time>2020-05-28T09:46:40.000Z</time>
      </trkpt>
      <trkpt lat="44.56665" lon="1.98816">
        <ele>316.98</ele>
        <time>2020-05-28T09:46:50.000Z</time>
      </trkpt>
      <trkpt lat="44.56672" lon="1.98815">
        <ele>316.98</ele>
        <time>2020-05-28T09:47:00.000Z</time>
      </trkpt>
      <trkpt lat="44.56671" lon="1.98815">
        <ele>316.98</ele>
        <time>2020-05-28T09:47:11.000Z</time>
      </trkpt>
      <trkpt lat="44.56668" lon="1.98813">
        <ele>316.98</ele>
        <time>2020-05-28T09:47:21.000Z</time>
      </trkpt>
      <trkpt lat="44.56667" lon="1.98811">
        <ele>316.98</ele>
        <time>2020-05-28T09:47:31.000Z</time>
      </trkpt>
      <trkpt lat="44.56668" lon="1.98811">
        <ele>316.98</ele>
        <time>2020-05-28T09:47:43.000Z</time>
      </trkpt>
      <trkpt lat="44.56672" lon="1.98815">
        <ele>316.98</ele>
        <time>2020-05-28T09:47:53.000Z</time>
      </trkpt>
      <trkpt lat="44.56672" lon="1.9881">
        <ele>316.98</ele>
        <time>2020-05-28T09:48:03.000Z</time>
      </trkpt>
      <trkpt lat="44.56673" lon="1.98812">
        <ele>316.98</ele>
        <time>2020-05-28T09:48:21.000Z</time>
      </trkpt>
      <trkpt lat="44.56672" lon="1.98815">
        <ele>316.98</ele>
        <time>2020-05-28T09:48:31.000Z</time>
      </trkpt>
      <trkpt lat="44.56671" lon="1.98813">
        <ele>316.98</ele>
        <time>2020-05-28T09:48:46.000Z</time>
      </trkpt>
      <trkpt lat="44.56669" lon="1.98814">
        <ele>316.98</ele>
        <time>2020-05-28T09:48:56.000Z</time>
      </trkpt>
      <trkpt lat="44.56671" lon="1.98817">
        <ele>316.98</ele>
        <time>2020-05-28T09:49:06.000Z</time>
      </trkpt>
      <trkpt lat="44.5667" lon="1.98816">
        <ele>316.98</ele>
        <time>2020-05-28T09:49:16.000Z</time>
      </trkpt>
      <trkpt lat="44.56671" lon="1.98814">
        <ele>316.98</ele>
        <time>2020-05-28T09:49:36.000Z</time>
      </trkpt>
      <trkpt lat="44.5667" lon="1.98813">
        <ele>316.98</ele>
        <time>2020-05-28T09:49:46.000Z</time>
      </trkpt>
      <trkpt lat="44.5667" lon="1.98817">
        <ele>316.98</ele>
        <time>2020-05-28T09:49:56.000Z</time>
      </trkpt>
      <trkpt lat="44.56669" lon="1.98817">
        <ele>316.98</ele>
        <time>2020-05-28T09:50:06.000Z</time>
      </trkpt>
      <trkpt lat="44.56645" lon="1.98811">
        <ele>316.98</ele>
        <time>2020-05-28T09:50:16.000Z</time>
      </trkpt>
      <trkpt lat="44.56605" lon="1.98803">
        <ele>316.98</ele>
        <time>2020-05-28T09:50:27.000Z</time>
      </trkpt>
      <trkpt lat="44.5655" lon="1.98802">
        <ele>316.98</ele>
        <time>2020-05-28T09:50:37.000Z</time>
      </trkpt>
      <trkpt lat="44.56495" lon="1.988">
        <ele>316.98</ele>
        <time>2020-05-28T09:50:47.000Z</time>
      </trkpt>
      <trkpt lat="44.56449" lon="1.98792">
        <ele>316.98</ele>
        <time>2020-05-28T09:50:57.000Z</time>
      </trkpt>
      <trkpt lat="44.56455" lon="1.98762">
        <ele>303.32</ele>
        <time>2020-05-28T09:51:07.000Z</time>
      </trkpt>
      <trkpt lat="44.56476" lon="1.98739">
        <ele>317.59</ele>
        <time>2020-05-28T09:51:16.459Z</time>
      </trkpt>
      <trkpt lat="44.56488" lon="1.98725">
        <ele>318.58</ele>
        <time>2020-05-28T09:51:26.070Z</time>
      </trkpt>
      <trkpt lat="44.56496" lon="1.98701">
        <ele>318.59</ele>
        <time>2020-05-28T09:51:36.000Z</time>
      </trkpt>
      <trkpt lat="44.56499" lon="1.98688">
        <ele>318.59</ele>
        <time>2020-05-28T09:51:46.000Z</time>
      </trkpt>
      <trkpt lat="44.56505" lon="1.98672">
        <ele>318.59</ele>
        <time>2020-05-28T09:51:56.000Z</time>
      </trkpt>
      <trkpt lat="44.56533" lon="1.9866">
        <ele>318.59</ele>
        <time>2020-05-28T09:52:06.000Z</time>
      </trkpt>
      <trkpt lat="44.56547" lon="1.98654">
        <ele>330.6</ele>
        <time>2020-05-28T09:52:16.000Z</time>
      </trkpt>
      <trkpt lat="44.56563" lon="1.98631">
        <ele>330.79</ele>
        <time>2020-05-28T09:52:26.000Z</time>
      </trkpt>
      <trkpt lat="44.56581" lon="1.98634">
        <ele>330.79</ele>
        <time>2020-05-28T09:52:36.000Z</time>
      </trkpt>
      <trkpt lat="44.56582" lon="1.98636">
        <ele>332.09</ele>
        <time>2020-05-28T09:52:46.000Z</time>
      </trkpt>
      <trkpt lat="44.56598" lon="1.98615">
        <ele>332.09</ele>
        <time>2020-05-28T09:52:56.000Z</time>
      </trkpt>
      <trkpt lat="44.56612" lon="1.98574">
        <ele>332.09</ele>
        <time>2020-05-28T09:53:06.000Z</time>
      </trkpt>
      <trkpt lat="44.56633" lon="1.98534">
        <ele>332.09</ele>
        <time>2020-05-28T09:53:16.000Z</time>
      </trkpt>
      <trkpt lat="44.56641" lon="1.98524">
        <ele>331.71</ele>
        <time>2020-05-28T09:53:26.000Z</time>
      </trkpt>
      <trkpt lat="44.56644" lon="1.98522">
        <ele>331.59</ele>
        <time>2020-05-28T09:53:36.000Z</time>
      </trkpt>
      <trkpt lat="44.56638" lon="1.98511">
        <ele>331.59</ele>
        <time>2020-05-28T09:53:47.000Z</time>
      </trkpt>
      <trkpt lat="44.56628" lon="1.9848">
        <ele>331.59</ele>
        <time>2020-05-28T09:53:57.000Z</time>
      </trkpt>
      <trkpt lat="44.56616" lon="1.98457">
        <ele>331.59</ele>
        <time>2020-05-28T09:54:07.000Z</time>
      </trkpt>
      <trkpt lat="44.56607" lon="1.98427">
        <ele>331.59</ele>
        <time>2020-05-28T09:54:17.000Z</time>
      </trkpt>
      <trkpt lat="44.56597" lon="1.98383">
        <ele>331.59</ele>
        <time>2020-05-28T09:54:27.000Z</time>
      </trkpt>
      <trkpt lat="44.5659" lon="1.98344">
        <ele>331.59</ele>
        <time>2020-05-28T09:54:38.000Z</time>
      </trkpt>
      <trkpt lat="44.5658" lon="1.98306">
        <ele>332.65</ele>
        <time>2020-05-28T09:54:48.000Z</time>
      </trkpt>
      <trkpt lat="44.56568" lon="1.98261">
        <ele>335.39</ele>
        <time>2020-05-28T09:54:59.000Z</time>
      </trkpt>
      <trkpt lat="44.5656" lon="1.98215">
        <ele>337.39</ele>
        <time>2020-05-28T09:55:10.000Z</time>
      </trkpt>
      <trkpt lat="44.5656" lon="1.98169">
        <ele>336.39</ele>
        <time>2020-05-28T09:55:21.000Z</time>
      </trkpt>
      <trkpt lat="44.56558" lon="1.98119">
        <ele>336.89</ele>
        <time>2020-05-28T09:55:32.000Z</time>
      </trkpt>
      <trkpt lat="44.56557" lon="1.98073">
        <ele>337.39</ele>
        <time>2020-05-28T09:55:42.000Z</time>
      </trkpt>
      <trkpt lat="44.56557" lon="1.98018">
        <ele>335.69</ele>
        <time>2020-05-28T09:55:52.071Z</time>
      </trkpt>
      <trkpt lat="44.56558" lon="1.9799">
        <ele>336.15</ele>
        <time>2020-05-28T09:56:02.000Z</time>
      </trkpt>
      <trkpt lat="44.56558" lon="1.97949">
        <ele>337.26</ele>
        <time>2020-05-28T09:56:12.000Z</time>
      </trkpt>
      <trkpt lat="44.56548" lon="1.97904">
        <ele>340.38</ele>
        <time>2020-05-28T09:56:22.000Z</time>
      </trkpt>
      <trkpt lat="44.56541" lon="1.97889">
        <ele>342.4</ele>
        <time>2020-05-28T09:56:32.000Z</time>
      </trkpt>
      <trkpt lat="44.56539" lon="1.97885">
        <ele>341.4</ele>
        <time>2020-05-28T09:56:42.000Z</time>
      </trkpt>
      <trkpt lat="44.56538" lon="1.97886">
        <ele>341.4</ele>
        <time>2020-05-28T09:56:56.000Z</time>
      </trkpt>
      <trkpt lat="44.56535" lon="1.97887">
        <ele>338.43</ele>
        <time>2020-05-28T09:57:06.000Z</time>
      </trkpt>
      <trkpt lat="44.56536" lon="1.97886">
        <ele>339.38</ele>
        <time>2020-05-28T09:57:20.000Z</time>
      </trkpt>
      <trkpt lat="44.5654" lon="1.97885">
        <ele>339.15</ele>
        <time>2020-05-28T09:57:30.000Z</time>
      </trkpt>
      <trkpt lat="44.56528" lon="1.97861">
        <ele>341.41</ele>
        <time>2020-05-28T09:57:40.000Z</time>
      </trkpt>
      <trkpt lat="44.56506" lon="1.97827">
        <ele>339.18</ele>
        <time>2020-05-28T09:57:51.000Z</time>
      </trkpt>
      <trkpt lat="44.56472" lon="1.97754">
        <ele>338.39</ele>
        <time>2020-05-28T09:58:01.000Z</time>
      </trkpt>
      <trkpt lat="44.56434" lon="1.9768">
        <ele>337.4</ele>
        <time>2020-05-28T09:58:11.000Z</time>
      </trkpt>
      <trkpt lat="44.56385" lon="1.97616">
        <ele>335.41</ele>
        <time>2020-05-28T09:58:21.000Z</time>
      </trkpt>
      <trkpt lat="44.5635" lon="1.97524">
        <ele>334.66</ele>
        <time>2020-05-28T09:58:31.000Z</time>
      </trkpt>
      <trkpt lat="44.56316" lon="1.97462">
        <ele>331.41</ele>
        <time>2020-05-28T09:58:41.000Z</time>
      </trkpt>
      <trkpt lat="44.56277" lon="1.97421">
        <ele>333.41</ele>
        <time>2020-05-28T09:58:50.326Z</time>
      </trkpt>
      <trkpt lat="44.56251" lon="1.97386">
        <ele>332.41</ele>
        <time>2020-05-28T09:58:59.796Z</time>
      </trkpt>
      <trkpt lat="44.56231" lon="1.97364">
        <ele>333.34</ele>
        <time>2020-05-28T09:59:10.000Z</time>
      </trkpt>
      <trkpt lat="44.56195" lon="1.97353">
        <ele>332.78</ele>
        <time>2020-05-28T09:59:20.000Z</time>
      </trkpt>
      <trkpt lat="44.56159" lon="1.97333">
        <ele>334.39</ele>
        <time>2020-05-28T09:59:30.000Z</time>
      </trkpt>
      <trkpt lat="44.56146" lon="1.97321">
        <ele>336.39</ele>
        <time>2020-05-28T09:59:40.000Z</time>
      </trkpt>
      <trkpt lat="44.56156" lon="1.97285">
        <ele>336.33</ele>
        <time>2020-05-28T09:59:50.000Z</time>
      </trkpt>
      <trkpt lat="44.56165" lon="1.9724">
        <ele>334.66</ele>
        <time>2020-05-28T10:00:00.000Z</time>
      </trkpt>
      <trkpt lat="44.5617" lon="1.97186">
        <ele>334.66</ele>
        <time>2020-05-28T10:00:10.000Z</time>
      </trkpt>
      <trkpt lat="44.56172" lon="1.97093">
        <ele>328.79</ele>
        <time>2020-05-28T10:00:20.000Z</time>
      </trkpt>
      <trkpt lat="44.5615" lon="1.9697">
        <ele>323.68</ele>
        <time>2020-05-28T10:00:30.000Z</time>
      </trkpt>
      <trkpt lat="44.56149" lon="1.96871">
        <ele>324.4</ele>
        <time>2020-05-28T10:00:40.000Z</time>
      </trkpt>
      <trkpt lat="44.56125" lon="1.96841">
        <ele>327.35</ele>
        <time>2020-05-28T10:00:49.276Z</time>
      </trkpt>
      <trkpt lat="44.56106" lon="1.96811">
        <ele>328.4</ele>
        <time>2020-05-28T10:00:59.000Z</time>
      </trkpt>
      <trkpt lat="44.56087" lon="1.96759">
        <ele>332.17</ele>
        <time>2020-05-28T10:01:12.000Z</time>
      </trkpt>
      <trkpt lat="44.56083" lon="1.96731">
        <ele>333.42</ele>
        <time>2020-05-28T10:01:22.000Z</time>
      </trkpt>
      <trkpt lat="44.56077" lon="1.96681">
        <ele>334.42</ele>
        <time>2020-05-28T10:01:32.000Z</time>
      </trkpt>
      <trkpt lat="44.56067" lon="1.96643">
        <ele>333.4</ele>
        <time>2020-05-28T10:01:43.000Z</time>
      </trkpt>
      <trkpt lat="44.56058" lon="1.96606">
        <ele>334.91</ele>
        <time>2020-05-28T10:01:53.000Z</time>
      </trkpt>
      <trkpt lat="44.56052" lon="1.9656">
        <ele>337.17</ele>
        <time>2020-05-28T10:02:03.000Z</time>
      </trkpt>
      <trkpt lat="44.56046" lon="1.96533">
        <ele>338.36</ele>
        <time>2020-05-28T10:02:13.000Z</time>
      </trkpt>
      <trkpt lat="44.56041" lon="1.9652">
        <ele>341.4</ele>
        <time>2020-05-28T10:02:23.000Z</time>
      </trkpt>
      <trkpt lat="44.56041" lon="1.96517">
        <ele>340.42</ele>
        <time>2020-05-28T10:02:33.000Z</time>
      </trkpt>
      <trkpt lat="44.56042" lon="1.96504">
        <ele>342.4</ele>
        <time>2020-05-28T10:02:43.000Z</time>
      </trkpt>
      <trkpt lat="44.56034" lon="1.96468">
        <ele>346.39</ele>
        <time>2020-05-28T10:02:54.000Z</time>
      </trkpt>
      <trkpt lat="44.56071" lon="1.9645">
        <ele>345.42</ele>
        <time>2020-05-28T10:03:04.000Z</time>
      </trkpt>
      <trkpt lat="44.56105" lon="1.96404">
        <ele>341.42</ele>
        <time>2020-05-28T10:03:14.000Z</time>
      </trkpt>
      <trkpt lat="44.56139" lon="1.9635">
        <ele>338.98</ele>
        <time>2020-05-28T10:03:24.000Z</time>
      </trkpt>
      <trkpt lat="44.56187" lon="1.96277">
        <ele>336.43</ele>
        <time>2020-05-28T10:03:34.000Z</time>
      </trkpt>
      <trkpt lat="44.56226" lon="1.96214">
        <ele>331.25</ele>
        <time>2020-05-28T10:03:44.000Z</time>
      </trkpt>
      <trkpt lat="44.56273" lon="1.96137">
        <ele>333.16</ele>
        <time>2020-05-28T10:03:54.000Z</time>
      </trkpt>
      <trkpt lat="44.5631" lon="1.96072">
        <ele>328.17</ele>
        <time>2020-05-28T10:04:04.000Z</time>
      </trkpt>
      <trkpt lat="44.56343" lon="1.96012">
        <ele>328.43</ele>
        <time>2020-05-28T10:04:14.000Z</time>
      </trkpt>
      <trkpt lat="44.56361" lon="1.95959">
        <ele>330.43</ele>
        <time>2020-05-28T10:04:25.000Z</time>
      </trkpt>
      <trkpt lat="44.56368" lon="1.95898">
        <ele>330.49</ele>
        <time>2020-05-28T10:04:36.000Z</time>
      </trkpt>
      <trkpt lat="44.5637" lon="1.95845">
        <ele>328.43</ele>
        <time>2020-05-28T10:04:46.000Z</time>
      </trkpt>
      <trkpt lat="44.56377" lon="1.9579">
        <ele>329.43</ele>
        <time>2020-05-28T10:04:56.000Z</time>
      </trkpt>
      <trkpt lat="44.56389" lon="1.95737">
        <ele>330.43</ele>
        <time>2020-05-28T10:05:06.000Z</time>
      </trkpt>
      <trkpt lat="44.5642" lon="1.957">
        <ele>326.72</ele>
        <time>2020-05-28T10:05:16.000Z</time>
      </trkpt>
      <trkpt lat="44.56449" lon="1.95691">
        <ele>326.44</ele>
        <time>2020-05-28T10:05:25.066Z</time>
      </trkpt>
      <trkpt lat="44.56463" lon="1.95694">
        <ele>331.43</ele>
        <time>2020-05-28T10:05:35.000Z</time>
      </trkpt>
      <trkpt lat="44.56504" lon="1.95669">
        <ele>331.43</ele>
        <time>2020-05-28T10:05:44.294Z</time>
      </trkpt>
      <trkpt lat="44.5656" lon="1.95656">
        <ele>331.43</ele>
        <time>2020-05-28T10:05:54.000Z</time>
      </trkpt>
      <trkpt lat="44.56596" lon="1.95661">
        <ele>328.37</ele>
        <time>2020-05-28T10:06:04.000Z</time>
      </trkpt>
      <trkpt lat="44.56603" lon="1.95635">
        <ele>331.18</ele>
        <time>2020-05-28T10:06:16.000Z</time>
      </trkpt>
      <trkpt lat="44.56597" lon="1.95605">
        <ele>336.18</ele>
        <time>2020-05-28T10:06:28.000Z</time>
      </trkpt>
      <trkpt lat="44.56592" lon="1.95567">
        <ele>336.69</ele>
        <time>2020-05-28T10:06:38.000Z</time>
      </trkpt>
      <trkpt lat="44.56583" lon="1.95533">
        <ele>334.19</ele>
        <time>2020-05-28T10:06:48.000Z</time>
      </trkpt>
      <trkpt lat="44.56568" lon="1.95496">
        <ele>335.19</ele>
        <time>2020-05-28T10:06:58.000Z</time>
      </trkpt>
      <trkpt lat="44.5659" lon="1.95441">
        <ele>335.44</ele>
        <time>2020-05-28T10:07:09.000Z</time>
      </trkpt>
      <trkpt lat="44.56614" lon="1.95412">
        <ele>339.38</ele>
        <time>2020-05-28T10:07:20.000Z</time>
      </trkpt>
      <trkpt lat="44.56639" lon="1.95371">
        <ele>343.17</ele>
        <time>2020-05-28T10:07:30.000Z</time>
      </trkpt>
      <trkpt lat="44.56676" lon="1.95261">
        <ele>342.52</ele>
        <time>2020-05-28T10:07:40.000Z</time>
      </trkpt>
      <trkpt lat="44.56657" lon="1.95176">
        <ele>331.79</ele>
        <time>2020-05-28T10:07:50.000Z</time>
      </trkpt>
      <trkpt lat="44.56631" lon="1.95108">
        <ele>324.77</ele>
        <time>2020-05-28T10:08:00.000Z</time>
      </trkpt>
      <trkpt lat="44.5661" lon="1.95046">
        <ele>322.45</ele>
        <time>2020-05-28T10:08:10.000Z</time>
      </trkpt>
      <trkpt lat="44.56596" lon="1.9501">
        <ele>321.43</ele>
        <time>2020-05-28T10:08:20.000Z</time>
      </trkpt>
      <trkpt lat="44.56573" lon="1.94989">
        <ele>320.44</ele>
        <time>2020-05-28T10:08:31.000Z</time>
      </trkpt>
      <trkpt lat="44.5656" lon="1.94981">
        <ele>318.01</ele>
        <time>2020-05-28T10:08:41.000Z</time>
      </trkpt>
      <trkpt lat="44.56535" lon="1.94951">
        <ele>318.45</ele>
        <time>2020-05-28T10:08:51.000Z</time>
      </trkpt>
      <trkpt lat="44.5653" lon="1.94888">
        <ele>317.51</ele>
        <time>2020-05-28T10:09:01.000Z</time>
      </trkpt>
      <trkpt lat="44.56518" lon="1.9484">
        <ele>315.46</ele>
        <time>2020-05-28T10:09:11.000Z</time>
      </trkpt>
      <trkpt lat="44.56496" lon="1.94793">
        <ele>313.57</ele>
        <time>2020-05-28T10:09:21.000Z</time>
      </trkpt>
      <trkpt lat="44.56484" lon="1.94767">
        <ele>315.43</ele>
        <time>2020-05-28T10:09:31.000Z</time>
      </trkpt>
      <trkpt lat="44.56467" lon="1.94725">
        <ele>320.14</ele>
        <time>2020-05-28T10:09:41.000Z</time>
      </trkpt>
      <trkpt lat="44.56444" lon="1.94697">
        <ele>323.39</ele>
        <time>2020-05-28T10:09:51.000Z</time>
      </trkpt>
      <trkpt lat="44.56419" lon="1.94686">
        <ele>328.87</ele>
        <time>2020-05-28T10:10:03.000Z</time>
      </trkpt>
      <trkpt lat="44.56397" lon="1.94669">
        <ele>327.48</ele>
        <time>2020-05-28T10:10:14.000Z</time>
      </trkpt>
      <trkpt lat="44.56369" lon="1.9464">
        <ele>329.64</ele>
        <time>2020-05-28T10:10:24.000Z</time>
      </trkpt>
      <trkpt lat="44.56334" lon="1.94622">
        <ele>328.45</ele>
        <time>2020-05-28T10:10:35.000Z</time>
      </trkpt>
      <trkpt lat="44.56307" lon="1.94617">
        <ele>330.37</ele>
        <time>2020-05-28T10:10:45.000Z</time>
      </trkpt>
      <trkpt lat="44.56279" lon="1.94616">
        <ele>335.2</ele>
        <time>2020-05-28T10:10:56.000Z</time>
      </trkpt>
      <trkpt lat="44.56243" lon="1.94616">
        <ele>338.2</ele>
        <time>2020-05-28T10:11:07.000Z</time>
      </trkpt>
      <trkpt lat="44.56208" lon="1.94621">
        <ele>338.39</ele>
        <time>2020-05-28T10:11:17.000Z</time>
      </trkpt>
      <trkpt lat="44.56172" lon="1.94639">
        <ele>339.43</ele>
        <time>2020-05-28T10:11:29.000Z</time>
      </trkpt>
      <trkpt lat="44.56147" lon="1.94657">
        <ele>343.2</ele>
        <time>2020-05-28T10:11:39.000Z</time>
      </trkpt>
      <trkpt lat="44.56128" lon="1.9467">
        <ele>349.18</ele>
        <time>2020-05-28T10:11:51.000Z</time>
      </trkpt>
      <trkpt lat="44.56094" lon="1.94692">
        <ele>350.45</ele>
        <time>2020-05-28T10:12:01.000Z</time>
      </trkpt>
      <trkpt lat="44.56063" lon="1.94719">
        <ele>351.45</ele>
        <time>2020-05-28T10:12:13.000Z</time>
      </trkpt>
      <trkpt lat="44.56037" lon="1.9474">
        <ele>352.64</ele>
        <time>2020-05-28T10:12:23.000Z</time>
      </trkpt>
      <trkpt lat="44.56016" lon="1.9476">
        <ele>355.2</ele>
        <time>2020-05-28T10:12:33.000Z</time>
      </trkpt>
      <trkpt lat="44.5601" lon="1.94759">
        <ele>351.7</ele>
        <time>2020-05-28T10:12:45.000Z</time>
      </trkpt>
      <trkpt lat="44.5601" lon="1.94763">
        <ele>351.45</ele>
        <time>2020-05-28T10:12:59.000Z</time>
      </trkpt>
      <trkpt lat="44.56009" lon="1.94762">
        <ele>351.45</ele>
        <time>2020-05-28T10:13:09.000Z</time>
      </trkpt>
      <trkpt lat="44.56006" lon="1.94759">
        <ele>352.45</ele>
        <time>2020-05-28T10:13:19.000Z</time>
      </trkpt>
      <trkpt lat="44.56" lon="1.94754">
        <ele>353.44</ele>
        <time>2020-05-28T10:13:31.000Z</time>
      </trkpt>
      <trkpt lat="44.55996" lon="1.94751">
        <ele>353.45</ele>
        <time>2020-05-28T10:13:41.000Z</time>
      </trkpt>
      <trkpt lat="44.55992" lon="1.9475">
        <ele>349.51</ele>
        <time>2020-05-28T10:13:51.000Z</time>
      </trkpt>
      <trkpt lat="44.55986" lon="1.94749">
        <ele>346.76</ele>
        <time>2020-05-28T10:14:01.000Z</time>
      </trkpt>
      <trkpt lat="44.55987" lon="1.94747">
        <ele>349.19</ele>
        <time>2020-05-28T10:14:12.000Z</time>
      </trkpt>
      <trkpt lat="44.55989" lon="1.94737">
        <ele>350.45</ele>
        <time>2020-05-28T10:14:23.000Z</time>
      </trkpt>
      <trkpt lat="44.55978" lon="1.94729">
        <ele>352.42</ele>
        <time>2020-05-28T10:14:32.056Z</time>
      </trkpt>
      <trkpt lat="44.55964" lon="1.94726">
        <ele>353.64</ele>
        <time>2020-05-28T10:14:42.000Z</time>
      </trkpt>
      <trkpt lat="44.55953" lon="1.94721">
        <ele>356.44</ele>
        <time>2020-05-28T10:14:52.000Z</time>
      </trkpt>
      <trkpt lat="44.55944" lon="1.94716">
        <ele>358.45</ele>
        <time>2020-05-28T10:15:04.000Z</time>
      </trkpt>
      <trkpt lat="44.55938" lon="1.9471">
        <ele>360.2</ele>
        <time>2020-05-28T10:15:14.000Z</time>
      </trkpt>
      <trkpt lat="44.55935" lon="1.947">
        <ele>360.7</ele>
        <time>2020-05-28T10:15:25.000Z</time>
      </trkpt>
      <trkpt lat="44.55935" lon="1.94698">
        <ele>360.45</ele>
        <time>2020-05-28T10:15:35.000Z</time>
      </trkpt>
      <trkpt lat="44.55935" lon="1.94699">
        <ele>359.45</ele>
        <time>2020-05-28T10:15:45.000Z</time>
      </trkpt>
      <trkpt lat="44.55933" lon="1.947">
        <ele>359.2</ele>
        <time>2020-05-28T10:15:55.000Z</time>
      </trkpt>
      <trkpt lat="44.55933" lon="1.94698">
        <ele>358.39</ele>
        <time>2020-05-28T10:16:17.000Z</time>
      </trkpt>
      <trkpt lat="44.55933" lon="1.94691">
        <ele>362.68</ele>
        <time>2020-05-28T10:16:28.000Z</time>
      </trkpt>
      <trkpt lat="44.55942" lon="1.94675">
        <ele>365.44</ele>
        <time>2020-05-28T10:16:38.000Z</time>
      </trkpt>
      <trkpt lat="44.55956" lon="1.94656">
        <ele>366.27</ele>
        <time>2020-05-28T10:16:48.000Z</time>
      </trkpt>
      <trkpt lat="44.5597" lon="1.94634">
        <ele>370.39</ele>
        <time>2020-05-28T10:16:57.430Z</time>
      </trkpt>
      <trkpt lat="44.55978" lon="1.94621">
        <ele>370.42</ele>
        <time>2020-05-28T10:17:07.000Z</time>
      </trkpt>
      <trkpt lat="44.55992" lon="1.94598">
        <ele>372.4</ele>
        <time>2020-05-28T10:17:17.000Z</time>
      </trkpt>
      <trkpt lat="44.56007" lon="1.94587">
        <ele>371.7</ele>
        <time>2020-05-28T10:17:27.000Z</time>
      </trkpt>
      <trkpt lat="44.56026" lon="1.94572">
        <ele>373.51</ele>
        <time>2020-05-28T10:17:37.266Z</time>
      </trkpt>
      <trkpt lat="44.56041" lon="1.94548">
        <ele>374.14</ele>
        <time>2020-05-28T10:17:48.000Z</time>
      </trkpt>
      <trkpt lat="44.56057" lon="1.94528">
        <ele>372.48</ele>
        <time>2020-05-28T10:17:57.396Z</time>
      </trkpt>
      <trkpt lat="44.56078" lon="1.9452">
        <ele>370.45</ele>
        <time>2020-05-28T10:18:07.000Z</time>
      </trkpt>
      <trkpt lat="44.56098" lon="1.94499">
        <ele>368.2</ele>
        <time>2020-05-28T10:18:16.447Z</time>
      </trkpt>
      <trkpt lat="44.56106" lon="1.94494">
        <ele>369.44</ele>
        <time>2020-05-28T10:18:26.000Z</time>
      </trkpt>
      <trkpt lat="44.56124" lon="1.94474">
        <ele>368.45</ele>
        <time>2020-05-28T10:18:36.000Z</time>
      </trkpt>
      <trkpt lat="44.56136" lon="1.94464">
        <ele>365.14</ele>
        <time>2020-05-28T10:18:46.000Z</time>
      </trkpt>
      <trkpt lat="44.56154" lon="1.9445">
        <ele>371.52</ele>
        <time>2020-05-28T10:18:57.000Z</time>
      </trkpt>
      <trkpt lat="44.56168" lon="1.94428">
        <ele>370.39</ele>
        <time>2020-05-28T10:19:07.000Z</time>
      </trkpt>
      <trkpt lat="44.56181" lon="1.94401">
        <ele>374.44</ele>
        <time>2020-05-28T10:19:18.000Z</time>
      </trkpt>
      <trkpt lat="44.56199" lon="1.94371">
        <ele>372.2</ele>
        <time>2020-05-28T10:19:27.950Z</time>
      </trkpt>
      <trkpt lat="44.56206" lon="1.94345">
        <ele>369.54</ele>
        <time>2020-05-28T10:19:40.000Z</time>
      </trkpt>
      <trkpt lat="44.56215" lon="1.94305">
        <ele>367.45</ele>
        <time>2020-05-28T10:19:51.000Z</time>
      </trkpt>
      <trkpt lat="44.5622" lon="1.9428">
        <ele>364.46</ele>
        <time>2020-05-28T10:20:01.000Z</time>
      </trkpt>
      <trkpt lat="44.56224" lon="1.94256">
        <ele>364.21</ele>
        <time>2020-05-28T10:20:11.000Z</time>
      </trkpt>
      <trkpt lat="44.5623" lon="1.94228">
        <ele>361.39</ele>
        <time>2020-05-28T10:20:20.466Z</time>
      </trkpt>
      <trkpt lat="44.56232" lon="1.94208">
        <ele>360.7</ele>
        <time>2020-05-28T10:20:30.000Z</time>
      </trkpt>
      <trkpt lat="44.56229" lon="1.94174">
        <ele>359.46</ele>
        <time>2020-05-28T10:20:42.000Z</time>
      </trkpt>
      <trkpt lat="44.56233" lon="1.94132">
        <ele>358.69</ele>
        <time>2020-05-28T10:20:52.062Z</time>
      </trkpt>
      <trkpt lat="44.56238" lon="1.94119">
        <ele>359.46</ele>
        <time>2020-05-28T10:21:02.000Z</time>
      </trkpt>
      <trkpt lat="44.56247" lon="1.94087">
        <ele>363.45</ele>
        <time>2020-05-28T10:21:11.525Z</time>
      </trkpt>
      <trkpt lat="44.56248" lon="1.94065">
        <ele>365.21</ele>
        <time>2020-05-28T10:21:21.000Z</time>
      </trkpt>
      <trkpt lat="44.56248" lon="1.94036">
        <ele>368.46</ele>
        <time>2020-05-28T10:21:30.064Z</time>
      </trkpt>
      <trkpt lat="44.56253" lon="1.94018">
        <ele>368.46</ele>
        <time>2020-05-28T10:21:40.000Z</time>
      </trkpt>
      <trkpt lat="44.5626" lon="1.93991">
        <ele>370.21</ele>
        <time>2020-05-28T10:21:51.000Z</time>
      </trkpt>
      <trkpt lat="44.56267" lon="1.93967">
        <ele>370.4</ele>
        <time>2020-05-28T10:22:01.000Z</time>
      </trkpt>
      <trkpt lat="44.5628" lon="1.93943">
        <ele>370.46</ele>
        <time>2020-05-28T10:22:11.000Z</time>
      </trkpt>
      <trkpt lat="44.56289" lon="1.93908">
        <ele>370.46</ele>
        <time>2020-05-28T10:22:20.591Z</time>
      </trkpt>
      <trkpt lat="44.56295" lon="1.93884">
        <ele>369.71</ele>
        <time>2020-05-28T10:22:30.088Z</time>
      </trkpt>
      <trkpt lat="44.56297" lon="1.93868">
        <ele>374.46</ele>
        <time>2020-05-28T10:22:40.000Z</time>
      </trkpt>
      <trkpt lat="44.56307" lon="1.93835">
        <ele>371.78</ele>
        <time>2020-05-28T10:22:52.000Z</time>
      </trkpt>
      <trkpt lat="44.56318" lon="1.93805">
        <ele>372.45</ele>
        <time>2020-05-28T10:23:02.000Z</time>
      </trkpt>
      <trkpt lat="44.56332" lon="1.93776">
        <ele>372.46</ele>
        <time>2020-05-28T10:23:14.000Z</time>
      </trkpt>
      <trkpt lat="44.56343" lon="1.93747">
        <ele>371.46</ele>
        <time>2020-05-28T10:23:24.000Z</time>
      </trkpt>
      <trkpt lat="44.56359" lon="1.93705">
        <ele>369.53</ele>
        <time>2020-05-28T10:23:34.000Z</time>
      </trkpt>
      <trkpt lat="44.56374" lon="1.93667">
        <ele>367.53</ele>
        <time>2020-05-28T10:23:43.062Z</time>
      </trkpt>
      <trkpt lat="44.56377" lon="1.93651">
        <ele>369.46</ele>
        <time>2020-05-28T10:23:53.000Z</time>
      </trkpt>
      <trkpt lat="44.56389" lon="1.93607">
        <ele>367.47</ele>
        <time>2020-05-28T10:24:05.000Z</time>
      </trkpt>
      <trkpt lat="44.56392" lon="1.93583">
        <ele>368.47</ele>
        <time>2020-05-28T10:24:15.000Z</time>
      </trkpt>
      <trkpt lat="44.56391" lon="1.93553">
        <ele>367.66</ele>
        <time>2020-05-28T10:24:26.000Z</time>
      </trkpt>
      <trkpt lat="44.56393" lon="1.93498">
        <ele>365.48</ele>
        <time>2020-05-28T10:24:39.000Z</time>
      </trkpt>
      <trkpt lat="44.56397" lon="1.9346">
        <ele>365.53</ele>
        <time>2020-05-28T10:24:50.000Z</time>
      </trkpt>
      <trkpt lat="44.56417" lon="1.93409">
        <ele>363.72</ele>
        <time>2020-05-28T10:25:02.000Z</time>
      </trkpt>
      <trkpt lat="44.56432" lon="1.93368">
        <ele>359.72</ele>
        <time>2020-05-28T10:25:14.000Z</time>
      </trkpt>
      <trkpt lat="44.56444" lon="1.93337">
        <ele>358.22</ele>
        <time>2020-05-28T10:25:25.000Z</time>
      </trkpt>
      <trkpt lat="44.56453" lon="1.9331">
        <ele>357.47</ele>
        <time>2020-05-28T10:25:35.277Z</time>
      </trkpt>
      <trkpt lat="44.56447" lon="1.93281">
        <ele>358.17</ele>
        <time>2020-05-28T10:25:45.000Z</time>
      </trkpt>
      <trkpt lat="44.56438" lon="1.93236">
        <ele>361.47</ele>
        <time>2020-05-28T10:25:55.000Z</time>
      </trkpt>
      <trkpt lat="44.5642" lon="1.93191">
        <ele>363.22</ele>
        <time>2020-05-28T10:26:06.000Z</time>
      </trkpt>
      <trkpt lat="44.56402" lon="1.93162">
        <ele>368.1</ele>
        <time>2020-05-28T10:26:16.000Z</time>
      </trkpt>
      <trkpt lat="44.56382" lon="1.93154">
        <ele>371.47</ele>
        <time>2020-05-28T10:26:25.036Z</time>
      </trkpt>
      <trkpt lat="44.56368" lon="1.9315">
        <ele>370.54</ele>
        <time>2020-05-28T10:26:35.000Z</time>
      </trkpt>
      <trkpt lat="44.56358" lon="1.93149">
        <ele>364.29</ele>
        <time>2020-05-28T10:26:45.000Z</time>
      </trkpt>
      <trkpt lat="44.56322" lon="1.9314">
        <ele>369.47</ele>
        <time>2020-05-28T10:26:57.000Z</time>
      </trkpt>
      <trkpt lat="44.56283" lon="1.93128">
        <ele>367.48</ele>
        <time>2020-05-28T10:27:07.000Z</time>
      </trkpt>
      <trkpt lat="44.56242" lon="1.93118">
        <ele>369.41</ele>
        <time>2020-05-28T10:27:18.000Z</time>
      </trkpt>
      <trkpt lat="44.56207" lon="1.93116">
        <ele>371.47</ele>
        <time>2020-05-28T10:27:28.000Z</time>
      </trkpt>
      <trkpt lat="44.56174" lon="1.93111">
        <ele>374.22</ele>
        <time>2020-05-28T10:27:39.000Z</time>
      </trkpt>
      <trkpt lat="44.56137" lon="1.93095">
        <ele>371.43</ele>
        <time>2020-05-28T10:27:48.402Z</time>
      </trkpt>
      <trkpt lat="44.56112" lon="1.93079">
        <ele>373.47</ele>
        <time>2020-05-28T10:27:58.000Z</time>
      </trkpt>
      <trkpt lat="44.56071" lon="1.93037">
        <ele>376.47</ele>
        <time>2020-05-28T10:28:08.000Z</time>
      </trkpt>
      <trkpt lat="44.56061" lon="1.92981">
        <ele>381.22</ele>
        <time>2020-05-28T10:28:17.443Z</time>
      </trkpt>
      <trkpt lat="44.5607" lon="1.92933">
        <ele>380.48</ele>
        <time>2020-05-28T10:28:26.848Z</time>
      </trkpt>
      <trkpt lat="44.56068" lon="1.92897">
        <ele>382.23</ele>
        <time>2020-05-28T10:28:37.000Z</time>
      </trkpt>
      <trkpt lat="44.56047" lon="1.92828">
        <ele>380.68</ele>
        <time>2020-05-28T10:28:47.000Z</time>
      </trkpt>
      <trkpt lat="44.56027" lon="1.92796">
        <ele>380.72</ele>
        <time>2020-05-28T10:28:57.000Z</time>
      </trkpt>
      <trkpt lat="44.55999" lon="1.92767">
        <ele>380.71</ele>
        <time>2020-05-28T10:29:07.000Z</time>
      </trkpt>
      <trkpt lat="44.55971" lon="1.92744">
        <ele>389.19</ele>
        <time>2020-05-28T10:29:17.000Z</time>
      </trkpt>
      <trkpt lat="44.55925" lon="1.92715">
        <ele>386.48</ele>
        <time>2020-05-28T10:29:26.062Z</time>
      </trkpt>
      <trkpt lat="44.55906" lon="1.92702">
        <ele>385.54</ele>
        <time>2020-05-28T10:29:36.000Z</time>
      </trkpt>
      <trkpt lat="44.55873" lon="1.92685">
        <ele>383.48</ele>
        <time>2020-05-28T10:29:46.000Z</time>
      </trkpt>
      <trkpt lat="44.55826" lon="1.92665">
        <ele>387.23</ele>
        <time>2020-05-28T10:29:58.000Z</time>
      </trkpt>
      <trkpt lat="44.55784" lon="1.92639">
        <ele>389.48</ele>
        <time>2020-05-28T10:30:08.000Z</time>
      </trkpt>
      <trkpt lat="44.55755" lon="1.92611">
        <ele>386.48</ele>
        <time>2020-05-28T10:30:18.000Z</time>
      </trkpt>
      <trkpt lat="44.55737" lon="1.92592">
        <ele>382.77</ele>
        <time>2020-05-28T10:30:28.000Z</time>
      </trkpt>
      <trkpt lat="44.55731" lon="1.92594">
        <ele>381.48</ele>
        <time>2020-05-28T10:30:38.000Z</time>
      </trkpt>
      <trkpt lat="44.55731" lon="1.92596">
        <ele>381.48</ele>
        <time>2020-05-28T10:30:53.000Z</time>
      </trkpt>
      <trkpt lat="44.5573" lon="1.92598">
        <ele>380.48</ele>
        <time>2020-05-28T10:31:03.000Z</time>
      </trkpt>
      <trkpt lat="44.55729" lon="1.92599">
        <ele>379.48</ele>
        <time>2020-05-28T10:31:13.000Z</time>
      </trkpt>
      <trkpt lat="44.55734" lon="1.92591">
        <ele>380.49</ele>
        <time>2020-05-28T10:31:23.000Z</time>
      </trkpt>
      <trkpt lat="44.55735" lon="1.92588">
        <ele>380.48</ele>
        <time>2020-05-28T10:31:35.000Z</time>
      </trkpt>
      <trkpt lat="44.55722" lon="1.92572">
        <ele>382.48</ele>
        <time>2020-05-28T10:31:45.000Z</time>
      </trkpt>
      <trkpt lat="44.55687" lon="1.92539">
        <ele>384.41</ele>
        <time>2020-05-28T10:31:55.000Z</time>
      </trkpt>
      <trkpt lat="44.55647" lon="1.92493">
        <ele>379.5</ele>
        <time>2020-05-28T10:32:05.000Z</time>
      </trkpt>
      <trkpt lat="44.55602" lon="1.92448">
        <ele>378.55</ele>
        <time>2020-05-28T10:32:15.000Z</time>
      </trkpt>
      <trkpt lat="44.5557" lon="1.92411">
        <ele>370.75</ele>
        <time>2020-05-28T10:32:24.082Z</time>
      </trkpt>
      <trkpt lat="44.55535" lon="1.92356">
        <ele>373.23</ele>
        <time>2020-05-28T10:32:34.000Z</time>
      </trkpt>
      <trkpt lat="44.55478" lon="1.92301">
        <ele>367.7</ele>
        <time>2020-05-28T10:32:44.000Z</time>
      </trkpt>
      <trkpt lat="44.55428" lon="1.92284">
        <ele>370.18</ele>
        <time>2020-05-28T10:32:54.000Z</time>
      </trkpt>
      <trkpt lat="44.55387" lon="1.92303">
        <ele>373.49</ele>
        <time>2020-05-28T10:33:06.000Z</time>
      </trkpt>
      <trkpt lat="44.55354" lon="1.92308">
        <ele>376.48</ele>
        <time>2020-05-28T10:33:16.000Z</time>
      </trkpt>
      <trkpt lat="44.5532" lon="1.9231">
        <ele>378.48</ele>
        <time>2020-05-28T10:33:26.000Z</time>
      </trkpt>
      <trkpt lat="44.553" lon="1.92315">
        <ele>384.16</ele>
        <time>2020-05-28T10:33:36.000Z</time>
      </trkpt>
      <trkpt lat="44.5528" lon="1.92313">
        <ele>385.55</ele>
        <time>2020-05-28T10:33:46.000Z</time>
      </trkpt>
      <trkpt lat="44.55242" lon="1.92308">
        <ele>388.42</ele>
        <time>2020-05-28T10:33:56.000Z</time>
      </trkpt>
      <trkpt lat="44.55186" lon="1.92298">
        <ele>375.99</ele>
        <time>2020-05-28T10:34:08.000Z</time>
      </trkpt>
      <trkpt lat="44.55145" lon="1.92309">
        <ele>380.22</ele>
        <time>2020-05-28T10:34:19.000Z</time>
      </trkpt>
      <trkpt lat="44.55121" lon="1.92321">
        <ele>379.72</ele>
        <time>2020-05-28T10:34:29.000Z</time>
      </trkpt>
      <trkpt lat="44.55085" lon="1.92325">
        <ele>379.49</ele>
        <time>2020-05-28T10:34:39.000Z</time>
      </trkpt>
      <trkpt lat="44.55033" lon="1.92296">
        <ele>374.8</ele>
        <time>2020-05-28T10:34:49.000Z</time>
      </trkpt>
      <trkpt lat="44.54977" lon="1.92261">
        <ele>367.82</ele>
        <time>2020-05-28T10:34:59.000Z</time>
      </trkpt>
      <trkpt lat="44.54926" lon="1.9225">
        <ele>364.75</ele>
        <time>2020-05-28T10:35:09.000Z</time>
      </trkpt>
      <trkpt lat="44.54899" lon="1.92257">
        <ele>364.5</ele>
        <time>2020-05-28T10:35:19.000Z</time>
      </trkpt>
      <trkpt lat="44.54889" lon="1.92264">
        <ele>364.49</ele>
        <time>2020-05-28T10:35:29.000Z</time>
      </trkpt>
      <trkpt lat="44.54851" lon="1.92271">
        <ele>363.49</ele>
        <time>2020-05-28T10:35:40.000Z</time>
      </trkpt>
      <trkpt lat="44.54813" lon="1.9229">
        <ele>361.49</ele>
        <time>2020-05-28T10:35:52.000Z</time>
      </trkpt>
      <trkpt lat="44.54801" lon="1.92342">
        <ele>357.55</ele>
        <time>2020-05-28T10:36:02.000Z</time>
      </trkpt>
      <trkpt lat="44.54755" lon="1.92363">
        <ele>351.49</ele>
        <time>2020-05-28T10:36:12.000Z</time>
      </trkpt>
      <trkpt lat="44.54715" lon="1.92392">
        <ele>346.23</ele>
        <time>2020-05-28T10:36:21.515Z</time>
      </trkpt>
      <trkpt lat="44.54715" lon="1.92423">
        <ele>345.48</ele>
        <time>2020-05-28T10:36:31.000Z</time>
      </trkpt>
      <trkpt lat="44.54736" lon="1.92476">
        <ele>346.36</ele>
        <time>2020-05-28T10:36:41.000Z</time>
      </trkpt>
      <trkpt lat="44.54717" lon="1.92509">
        <ele>345.73</ele>
        <time>2020-05-28T10:36:51.000Z</time>
      </trkpt>
      <trkpt lat="44.54684" lon="1.92553">
        <ele>343.48</ele>
        <time>2020-05-28T10:37:01.000Z</time>
      </trkpt>
      <trkpt lat="44.5465" lon="1.92591">
        <ele>339.54</ele>
        <time>2020-05-28T10:37:12.000Z</time>
      </trkpt>
      <trkpt lat="44.54628" lon="1.9261">
        <ele>336.73</ele>
        <time>2020-05-28T10:37:22.000Z</time>
      </trkpt>
      <trkpt lat="44.54575" lon="1.92648">
        <ele>336.64</ele>
        <time>2020-05-28T10:37:32.000Z</time>
      </trkpt>
      <trkpt lat="44.54527" lon="1.92707">
        <ele>334.48</ele>
        <time>2020-05-28T10:37:42.000Z</time>
      </trkpt>
      <trkpt lat="44.54482" lon="1.92766">
        <ele>331.73</ele>
        <time>2020-05-28T10:37:52.000Z</time>
      </trkpt>
      <trkpt lat="44.5444" lon="1.92807">
        <ele>330.24</ele>
        <time>2020-05-28T10:38:02.000Z</time>
      </trkpt>
      <trkpt lat="44.54411" lon="1.92831">
        <ele>329.49</ele>
        <time>2020-05-28T10:38:12.072Z</time>
      </trkpt>
      <trkpt lat="44.54402" lon="1.92841">
        <ele>327.79</ele>
        <time>2020-05-28T10:38:22.000Z</time>
      </trkpt>
      <trkpt lat="44.54371" lon="1.92861">
        <ele>323.79</ele>
        <time>2020-05-28T10:38:31.064Z</time>
      </trkpt>
      <trkpt lat="44.54341" lon="1.92878">
        <ele>322.48</ele>
        <time>2020-05-28T10:38:41.000Z</time>
      </trkpt>
      <trkpt lat="44.54301" lon="1.92908">
        <ele>321.23</ele>
        <time>2020-05-28T10:38:50.061Z</time>
      </trkpt>
      <trkpt lat="44.54276" lon="1.92923">
        <ele>322.47</ele>
        <time>2020-05-28T10:39:00.116Z</time>
      </trkpt>
      <trkpt lat="44.54261" lon="1.9293">
        <ele>323.47</ele>
        <time>2020-05-28T10:39:10.000Z</time>
      </trkpt>
      <trkpt lat="44.54244" lon="1.92943">
        <ele>321.47</ele>
        <time>2020-05-28T10:39:21.000Z</time>
      </trkpt>
      <trkpt lat="44.54214" lon="1.92944">
        <ele>317.55</ele>
        <time>2020-05-28T10:39:30.081Z</time>
      </trkpt>
      <trkpt lat="44.54213" lon="1.92942">
        <ele>318.47</ele>
        <time>2020-05-28T10:39:40.000Z</time>
      </trkpt>
      <trkpt lat="44.54211" lon="1.92945">
        <ele>319.46</ele>
        <time>2020-05-28T10:39:50.000Z</time>
      </trkpt>
      <trkpt lat="44.54212" lon="1.92955">
        <ele>317.49</ele>
        <time>2020-05-28T10:40:00.000Z</time>
      </trkpt>
      <trkpt lat="44.54211" lon="1.92958">
        <ele>315.47</ele>
        <time>2020-05-28T10:40:10.000Z</time>
      </trkpt>
      <trkpt lat="44.54211" lon="1.92956">
        <ele>314.47</ele>
        <time>2020-05-28T10:40:29.000Z</time>
      </trkpt>
      <trkpt lat="44.5421" lon="1.92955">
        <ele>316.47</ele>
        <time>2020-05-28T10:40:40.000Z</time>
      </trkpt>
      <trkpt lat="44.54211" lon="1.92955">
        <ele>318.47</ele>
        <time>2020-05-28T10:40:50.000Z</time>
      </trkpt>
      <trkpt lat="44.54225" lon="1.92953">
        <ele>319.49</ele>
        <time>2020-05-28T10:41:02.000Z</time>
      </trkpt>
      <trkpt lat="44.5423" lon="1.92952">
        <ele>320.47</ele>
        <time>2020-05-28T10:41:12.000Z</time>
      </trkpt>
      <trkpt lat="44.54232" lon="1.92952">
        <ele>319.47</ele>
        <time>2020-05-28T10:41:22.000Z</time>
      </trkpt>
      <trkpt lat="44.54233" lon="1.92945">
        <ele>319.47</ele>
        <time>2020-05-28T10:41:33.000Z</time>
      </trkpt>
      <trkpt lat="44.54229" lon="1.9294">
        <ele>319.47</ele>
        <time>2020-05-28T10:41:42.068Z</time>
      </trkpt>
      <trkpt lat="44.54214" lon="1.92948">
        <ele>316.22</ele>
        <time>2020-05-28T10:41:54.000Z</time>
      </trkpt>
      <trkpt lat="44.54194" lon="1.9299">
        <ele>315.72</ele>
        <time>2020-05-28T10:42:04.000Z</time>
      </trkpt>
      <trkpt lat="44.54159" lon="1.93056">
        <ele>309.74</ele>
        <time>2020-05-28T10:42:14.000Z</time>
      </trkpt>
      <trkpt lat="44.5414" lon="1.93102">
        <ele>310.41</ele>
        <time>2020-05-28T10:42:24.000Z</time>
      </trkpt>
      <trkpt lat="44.5412" lon="1.9312">
        <ele>309.47</ele>
        <time>2020-05-28T10:42:34.000Z</time>
      </trkpt>
      <trkpt lat="44.54097" lon="1.93148">
        <ele>309.46</ele>
        <time>2020-05-28T10:42:43.067Z</time>
      </trkpt>
      <trkpt lat="44.54088" lon="1.93167">
        <ele>308.66</ele>
        <time>2020-05-28T10:42:53.000Z</time>
      </trkpt>
      <trkpt lat="44.54079" lon="1.93185">
        <ele>311.72</ele>
        <time>2020-05-28T10:43:04.000Z</time>
      </trkpt>
      <trkpt lat="44.54062" lon="1.93245">
        <ele>310.73</ele>
        <time>2020-05-28T10:43:14.000Z</time>
      </trkpt>
      <trkpt lat="44.54043" lon="1.93299">
        <ele>306.78</ele>
        <time>2020-05-28T10:43:23.686Z</time>
      </trkpt>
      <trkpt lat="44.54034" lon="1.93323">
        <ele>304.72</ele>
        <time>2020-05-28T10:43:34.000Z</time>
      </trkpt>
      <trkpt lat="44.5402" lon="1.9337">
        <ele>302.47</ele>
        <time>2020-05-28T10:43:44.000Z</time>
      </trkpt>
      <trkpt lat="44.54007" lon="1.93412">
        <ele>300.45</ele>
        <time>2020-05-28T10:43:54.000Z</time>
      </trkpt>
      <trkpt lat="44.53985" lon="1.93428">
        <ele>305.78</ele>
        <time>2020-05-28T10:44:05.000Z</time>
      </trkpt>
      <trkpt lat="44.53953" lon="1.93444">
        <ele>302.47</ele>
        <time>2020-05-28T10:44:15.000Z</time>
      </trkpt>
      <trkpt lat="44.53911" lon="1.93475">
        <ele>300.72</ele>
        <time>2020-05-28T10:44:25.073Z</time>
      </trkpt>
      <trkpt lat="44.53886" lon="1.93491">
        <ele>297.91</ele>
        <time>2020-05-28T10:44:35.000Z</time>
      </trkpt>
      <trkpt lat="44.53845" lon="1.93532">
        <ele>299.4</ele>
        <time>2020-05-28T10:44:47.000Z</time>
      </trkpt>
      <trkpt lat="44.53815" lon="1.93576">
        <ele>300.46</ele>
        <time>2020-05-28T10:44:57.000Z</time>
      </trkpt>
      <trkpt lat="44.53786" lon="1.9361">
        <ele>297.48</ele>
        <time>2020-05-28T10:45:07.076Z</time>
      </trkpt>
      <trkpt lat="44.53767" lon="1.93628">
        <ele>295.71</ele>
        <time>2020-05-28T10:45:18.000Z</time>
      </trkpt>
      <trkpt lat="44.53745" lon="1.93688">
        <ele>287.48</ele>
        <time>2020-05-28T10:45:28.000Z</time>
      </trkpt>
      <trkpt lat="44.53726" lon="1.93719">
        <ele>289.65</ele>
        <time>2020-05-28T10:45:39.000Z</time>
      </trkpt>
      <trkpt lat="44.53711" lon="1.93772">
        <ele>286.78</ele>
        <time>2020-05-28T10:45:49.000Z</time>
      </trkpt>
      <trkpt lat="44.5371" lon="1.93832">
        <ele>282.48</ele>
        <time>2020-05-28T10:45:59.000Z</time>
      </trkpt>
      <trkpt lat="44.5371" lon="1.93868">
        <ele>279.47</ele>
        <time>2020-05-28T10:46:09.000Z</time>
      </trkpt>
      <trkpt lat="44.53716" lon="1.93917">
        <ele>276.52</ele>
        <time>2020-05-28T10:46:21.000Z</time>
      </trkpt>
      <trkpt lat="44.53715" lon="1.93973">
        <ele>275.46</ele>
        <time>2020-05-28T10:46:30.076Z</time>
      </trkpt>
      <trkpt lat="44.53714" lon="1.93994">
        <ele>272.73</ele>
        <time>2020-05-28T10:46:41.000Z</time>
      </trkpt>
      <trkpt lat="44.53712" lon="1.94038">
        <ele>270.46</ele>
        <time>2020-05-28T10:46:52.000Z</time>
      </trkpt>
      <trkpt lat="44.5371" lon="1.94066">
        <ele>266.47</ele>
        <time>2020-05-28T10:47:02.000Z</time>
      </trkpt>
      <trkpt lat="44.53692" lon="1.94093">
        <ele>265.52</ele>
        <time>2020-05-28T10:47:12.000Z</time>
      </trkpt>
      <trkpt lat="44.53672" lon="1.94116">
        <ele>261.52</ele>
        <time>2020-05-28T10:47:21.443Z</time>
      </trkpt>
      <trkpt lat="44.53649" lon="1.94135">
        <ele>256.74</ele>
        <time>2020-05-28T10:47:31.000Z</time>
      </trkpt>
      <trkpt lat="44.536" lon="1.94154">
        <ele>245.99</ele>
        <time>2020-05-28T10:47:41.000Z</time>
      </trkpt>
      <trkpt lat="44.53535" lon="1.94191">
        <ele>238.56</ele>
        <time>2020-05-28T10:47:51.000Z</time>
      </trkpt>
      <trkpt lat="44.53485" lon="1.94245">
        <ele>237.53</ele>
        <time>2020-05-28T10:48:01.000Z</time>
      </trkpt>
      <trkpt lat="44.5343" lon="1.94288">
        <ele>238.47</ele>
        <time>2020-05-28T10:48:11.000Z</time>
      </trkpt>
      <trkpt lat="44.5338" lon="1.94278">
        <ele>239.44</ele>
        <time>2020-05-28T10:48:21.000Z</time>
      </trkpt>
      <trkpt lat="44.53303" lon="1.94273">
        <ele>234.28</ele>
        <time>2020-05-28T10:48:31.000Z</time>
      </trkpt>
      <trkpt lat="44.53243" lon="1.94307">
        <ele>226.72</ele>
        <time>2020-05-28T10:48:41.000Z</time>
      </trkpt>
      <trkpt lat="44.5318" lon="1.94352">
        <ele>221.77</ele>
        <time>2020-05-28T10:48:51.000Z</time>
      </trkpt>
      <trkpt lat="44.5312" lon="1.94419">
        <ele>208.92</ele>
        <time>2020-05-28T10:49:01.000Z</time>
      </trkpt>
      <trkpt lat="44.53079" lon="1.94507">
        <ele>208.51</ele>
        <time>2020-05-28T10:49:11.000Z</time>
      </trkpt>
      <trkpt lat="44.53041" lon="1.94587">
        <ele>205.76</ele>
        <time>2020-05-28T10:49:21.000Z</time>
      </trkpt>
      <trkpt lat="44.53026" lon="1.94691">
        <ele>198.22</ele>
        <time>2020-05-28T10:49:31.000Z</time>
      </trkpt>
      <trkpt lat="44.52998" lon="1.94776">
        <ele>193.77</ele>
        <time>2020-05-28T10:49:41.000Z</time>
      </trkpt>
      <trkpt lat="44.52997" lon="1.94859">
        <ele>191.46</ele>
        <time>2020-05-28T10:49:51.000Z</time>
      </trkpt>
      <trkpt lat="44.53005" lon="1.94951">
        <ele>190.49</ele>
        <time>2020-05-28T10:50:01.000Z</time>
      </trkpt>
      <trkpt lat="44.52996" lon="1.9503">
        <ele>189.44</ele>
        <time>2020-05-28T10:50:11.000Z</time>
      </trkpt>
      <trkpt lat="44.52972" lon="1.95111">
        <ele>187.69</ele>
        <time>2020-05-28T10:50:21.000Z</time>
      </trkpt>
      <trkpt lat="44.52943" lon="1.9517">
        <ele>186.49</ele>
        <time>2020-05-28T10:50:31.000Z</time>
      </trkpt>
      <trkpt lat="44.529" lon="1.95182">
        <ele>186.38</ele>
        <time>2020-05-28T10:50:41.000Z</time>
      </trkpt>
      <trkpt lat="44.52874" lon="1.95192">
        <ele>185.94</ele>
        <time>2020-05-28T10:50:51.000Z</time>
      </trkpt>
      <trkpt lat="44.52847" lon="1.9521">
        <ele>186.43</ele>
        <time>2020-05-28T10:51:00.104Z</time>
      </trkpt>
      <trkpt lat="44.52819" lon="1.95232">
        <ele>186.37</ele>
        <time>2020-05-28T10:51:10.000Z</time>
      </trkpt>
      <trkpt lat="44.52795" lon="1.95254">
        <ele>185.44</ele>
        <time>2020-05-28T10:51:20.000Z</time>
      </trkpt>
      <trkpt lat="44.5278" lon="1.95272">
        <ele>184.19</ele>
        <time>2020-05-28T10:51:29.037Z</time>
      </trkpt>
      <trkpt lat="44.5277" lon="1.95266">
        <ele>182.44</ele>
        <time>2020-05-28T10:51:39.071Z</time>
      </trkpt>
      <trkpt lat="44.52765" lon="1.95315">
        <ele>187.34</ele>
        <time>2020-05-28T10:51:49.000Z</time>
      </trkpt>
      <trkpt lat="44.52751" lon="1.95347">
        <ele>189.48</ele>
        <time>2020-05-28T10:51:58.224Z</time>
      </trkpt>
      <trkpt lat="44.5274" lon="1.95363">
        <ele>189.49</ele>
        <time>2020-05-28T10:52:07.261Z</time>
      </trkpt>
      <trkpt lat="44.52715" lon="1.95374">
        <ele>188.44</ele>
        <time>2020-05-28T10:52:17.000Z</time>
      </trkpt>
      <trkpt lat="44.52696" lon="1.95384">
        <ele>187.69</ele>
        <time>2020-05-28T10:52:27.000Z</time>
      </trkpt>
      <trkpt lat="44.52695" lon="1.95383">
        <ele>187.43</ele>
        <time>2020-05-28T10:52:36.271Z</time>
      </trkpt>
      <trkpt lat="44.52694" lon="1.95382">
        <ele>187.43</ele>
        <time>2020-05-28T10:52:46.000Z</time>
      </trkpt>
      <trkpt lat="44.52693" lon="1.95387">
        <ele>187.43</ele>
        <time>2020-05-28T10:52:56.000Z</time>
      </trkpt>
      <trkpt lat="44.52689" lon="1.95382">
        <ele>187.37</ele>
        <time>2020-05-28T10:53:06.000Z</time>
      </trkpt>
      <trkpt lat="44.52691" lon="1.95382">
        <ele>186.68</ele>
        <time>2020-05-28T10:53:22.000Z</time>
      </trkpt>
      <trkpt lat="44.527" lon="1.95382">
        <ele>186.43</ele>
        <time>2020-05-28T10:53:31.596Z</time>
      </trkpt>
      <trkpt lat="44.52699" lon="1.95383">
        <ele>184.62</ele>
        <time>2020-05-28T10:53:41.000Z</time>
      </trkpt>
      <trkpt lat="44.52696" lon="1.95383">
        <ele>186.43</ele>
        <time>2020-05-28T10:53:51.000Z</time>
      </trkpt>
      <trkpt lat="44.52694" lon="1.95385">
        <ele>184.7</ele>
        <time>2020-05-28T10:54:02.000Z</time>
      </trkpt>
      <trkpt lat="44.52691" lon="1.95384">
        <ele>192.98</ele>
        <time>2020-05-28T10:54:12.000Z</time>
      </trkpt>
      <trkpt lat="44.52691" lon="1.95382">
        <ele>190.37</ele>
        <time>2020-05-28T10:54:32.000Z</time>
      </trkpt>
      <trkpt lat="44.52691" lon="1.95378">
        <ele>190.43</ele>
        <time>2020-05-28T10:54:42.000Z</time>
      </trkpt>
      <trkpt lat="44.52691" lon="1.95379">
        <ele>189.43</ele>
        <time>2020-05-28T10:54:52.000Z</time>
      </trkpt>
      <trkpt lat="44.5269" lon="1.95381">
        <ele>189.43</ele>
        <time>2020-05-28T10:55:02.000Z</time>
      </trkpt>
      <trkpt lat="44.52691" lon="1.95385">
        <ele>189.43</ele>
        <time>2020-05-28T10:55:12.000Z</time>
      </trkpt>
      <trkpt lat="44.5269" lon="1.95382">
        <ele>182.92</ele>
        <time>2020-05-28T10:55:24.000Z</time>
      </trkpt>
      <trkpt lat="44.52691" lon="1.9538">
        <ele>185.43</ele>
        <time>2020-05-28T10:55:34.000Z</time>
      </trkpt>
      <trkpt lat="44.52692" lon="1.95383">
        <ele>186.37</ele>
        <time>2020-05-28T10:55:44.000Z</time>
      </trkpt>
      <trkpt lat="44.52694" lon="1.95389">
        <ele>191.4</ele>
        <time>2020-05-28T10:55:54.000Z</time>
      </trkpt>
      <trkpt lat="44.52696" lon="1.95383">
        <ele>186.12</ele>
        <time>2020-05-28T10:56:04.000Z</time>
      </trkpt>
      <trkpt lat="44.52697" lon="1.95375">
        <ele>186.43</ele>
        <time>2020-05-28T10:56:14.000Z</time>
      </trkpt>
      <trkpt lat="44.52695" lon="1.954">
        <ele>187.68</ele>
        <time>2020-05-28T10:56:24.000Z</time>
      </trkpt>
      <trkpt lat="44.52704" lon="1.95448">
        <ele>187.18</ele>
        <time>2020-05-28T10:56:34.000Z</time>
      </trkpt>
      <trkpt lat="44.52725" lon="1.95489">
        <ele>189.23</ele>
        <time>2020-05-28T10:56:43.073Z</time>
      </trkpt>
      <trkpt lat="44.52735" lon="1.95558">
        <ele>186.67</ele>
        <time>2020-05-28T10:56:53.000Z</time>
      </trkpt>
      <trkpt lat="44.52738" lon="1.95613">
        <ele>186.43</ele>
        <time>2020-05-28T10:57:03.000Z</time>
      </trkpt>
      <trkpt lat="44.52729" lon="1.95636">
        <ele>184.49</ele>
        <time>2020-05-28T10:57:13.000Z</time>
      </trkpt>
      <trkpt lat="44.52705" lon="1.95645">
        <ele>174.53</ele>
        <time>2020-05-28T10:57:23.000Z</time>
      </trkpt>
      <trkpt lat="44.52692" lon="1.95671">
        <ele>182.61</ele>
        <time>2020-05-28T10:57:33.000Z</time>
      </trkpt>
      <trkpt lat="44.52672" lon="1.95701">
        <ele>183.43</ele>
        <time>2020-05-28T10:57:43.000Z</time>
      </trkpt>
      <trkpt lat="44.52655" lon="1.95721">
        <ele>173.47</ele>
        <time>2020-05-28T10:57:52.603Z</time>
      </trkpt>
      <trkpt lat="44.52632" lon="1.95733">
        <ele>170.68</ele>
        <time>2020-05-28T10:58:02.000Z</time>
      </trkpt>
      <trkpt lat="44.52602" lon="1.95769">
        <ele>171.3</ele>
        <time>2020-05-28T10:58:12.000Z</time>
      </trkpt>
      <trkpt lat="44.52564" lon="1.95815">
        <ele>167.51</ele>
        <time>2020-05-28T10:58:22.000Z</time>
      </trkpt>
      <trkpt lat="44.52531" lon="1.95846">
        <ele>161.43</ele>
        <time>2020-05-28T10:58:31.261Z</time>
      </trkpt>
      <trkpt lat="44.52533" lon="1.95883">
        <ele>160.43</ele>
        <time>2020-05-28T10:58:41.000Z</time>
      </trkpt>
      <trkpt lat="44.52546" lon="1.95935">
        <ele>157.43</ele>
        <time>2020-05-28T10:58:50.066Z</time>
      </trkpt>
      <trkpt lat="44.52561" lon="1.95997">
        <ele>157.41</ele>
        <time>2020-05-28T10:59:00.000Z</time>
      </trkpt>
      <trkpt lat="44.52576" lon="1.96056">
        <ele>158.24</ele>
        <time>2020-05-28T10:59:10.000Z</time>
      </trkpt>
      <trkpt lat="44.52593" lon="1.96119">
        <ele>159.43</ele>
        <time>2020-05-28T10:59:20.000Z</time>
      </trkpt>
      <trkpt lat="44.52618" lon="1.96181">
        <ele>158.42</ele>
        <time>2020-05-28T10:59:30.000Z</time>
      </trkpt>
      <trkpt lat="44.52643" lon="1.96238">
        <ele>158.42</ele>
        <time>2020-05-28T10:59:40.000Z</time>
      </trkpt>
      <trkpt lat="44.52673" lon="1.96283">
        <ele>157.42</ele>
        <time>2020-05-28T10:59:50.000Z</time>
      </trkpt>
      <trkpt lat="44.5272" lon="1.96321">
        <ele>158.42</ele>
        <time>2020-05-28T11:00:00.000Z</time>
      </trkpt>
      <trkpt lat="44.5276" lon="1.96367">
        <ele>157.4</ele>
        <time>2020-05-28T11:00:10.000Z</time>
      </trkpt>
      <trkpt lat="44.52796" lon="1.96412">
        <ele>157.42</ele>
        <time>2020-05-28T11:00:20.000Z</time>
      </trkpt>
      <trkpt lat="44.52831" lon="1.96456">
        <ele>158.4</ele>
        <time>2020-05-28T11:00:30.000Z</time>
      </trkpt>
      <trkpt lat="44.52867" lon="1.96504">
        <ele>158.42</ele>
        <time>2020-05-28T11:00:40.000Z</time>
      </trkpt>
      <trkpt lat="44.52883" lon="1.96526">
        <ele>164.05</ele>
        <time>2020-05-28T11:00:49.343Z</time>
      </trkpt>
      <trkpt lat="44.52937" lon="1.96588">
        <ele>160.35</ele>
        <time>2020-05-28T11:00:59.000Z</time>
      </trkpt>
      <trkpt lat="44.52971" lon="1.96639">
        <ele>158.67</ele>
        <time>2020-05-28T11:01:09.000Z</time>
      </trkpt>
      <trkpt lat="44.53007" lon="1.96694">
        <ele>157.66</ele>
        <time>2020-05-28T11:01:20.000Z</time>
      </trkpt>
      <trkpt lat="44.5304" lon="1.96749">
        <ele>158.41</ele>
        <time>2020-05-28T11:01:30.000Z</time>
      </trkpt>
      <trkpt lat="44.53073" lon="1.96799">
        <ele>155.29</ele>
        <time>2020-05-28T11:01:40.000Z</time>
      </trkpt>
      <trkpt lat="44.53101" lon="1.96849">
        <ele>157.41</ele>
        <time>2020-05-28T11:01:50.000Z</time>
      </trkpt>
      <trkpt lat="44.53128" lon="1.96898">
        <ele>154.17</ele>
        <time>2020-05-28T11:01:59.606Z</time>
      </trkpt>
      <trkpt lat="44.5316" lon="1.96941">
        <ele>155.41</ele>
        <time>2020-05-28T11:02:09.000Z</time>
      </trkpt>
      <trkpt lat="44.53195" lon="1.9698">
        <ele>157.16</ele>
        <time>2020-05-28T11:02:19.000Z</time>
      </trkpt>
      <trkpt lat="44.5323" lon="1.97027">
        <ele>158.46</ele>
        <time>2020-05-28T11:02:29.000Z</time>
      </trkpt>
      <trkpt lat="44.53264" lon="1.97077">
        <ele>157.47</ele>
        <time>2020-05-28T11:02:39.000Z</time>
      </trkpt>
      <trkpt lat="44.53296" lon="1.97116">
        <ele>158.41</ele>
        <time>2020-05-28T11:02:48.213Z</time>
      </trkpt>
      <trkpt lat="44.53334" lon="1.97151">
        <ele>157.4</ele>
        <time>2020-05-28T11:02:58.000Z</time>
      </trkpt>
      <trkpt lat="44.53375" lon="1.97188">
        <ele>158.16</ele>
        <time>2020-05-28T11:03:08.000Z</time>
      </trkpt>
      <trkpt lat="44.53411" lon="1.97211">
        <ele>158.16</ele>
        <time>2020-05-28T11:03:17.062Z</time>
      </trkpt>
      <trkpt lat="44.53452" lon="1.97242">
        <ele>158.4</ele>
        <time>2020-05-28T11:03:26.064Z</time>
      </trkpt>
      <trkpt lat="44.53491" lon="1.97246">
        <ele>157.47</ele>
        <time>2020-05-28T11:03:36.000Z</time>
      </trkpt>
      <trkpt lat="44.53525" lon="1.97188">
        <ele>156.41</ele>
        <time>2020-05-28T11:03:46.000Z</time>
      </trkpt>
      <trkpt lat="44.53557" lon="1.9713">
        <ele>154.47</ele>
        <time>2020-05-28T11:03:56.000Z</time>
      </trkpt>
      <trkpt lat="44.53587" lon="1.97079">
        <ele>151.47</ele>
        <time>2020-05-28T11:04:06.000Z</time>
      </trkpt>
      <trkpt lat="44.53633" lon="1.97061">
        <ele>153.41</ele>
        <time>2020-05-28T11:04:16.000Z</time>
      </trkpt>
      <trkpt lat="44.53684" lon="1.97065">
        <ele>154.41</ele>
        <time>2020-05-28T11:04:26.000Z</time>
      </trkpt>
      <trkpt lat="44.53724" lon="1.97102">
        <ele>155.39</ele>
        <time>2020-05-28T11:04:36.000Z</time>
      </trkpt>
      <trkpt lat="44.53761" lon="1.97118">
        <ele>157.41</ele>
        <time>2020-05-28T11:04:45.396Z</time>
      </trkpt>
      <trkpt lat="44.53794" lon="1.97126">
        <ele>155.41</ele>
        <time>2020-05-28T11:04:54.946Z</time>
      </trkpt>
      <trkpt lat="44.53813" lon="1.97163">
        <ele>157.14</ele>
        <time>2020-05-28T11:05:04.000Z</time>
      </trkpt>
      <trkpt lat="44.53845" lon="1.97156">
        <ele>159.39</ele>
        <time>2020-05-28T11:05:15.000Z</time>
      </trkpt>
      <trkpt lat="44.53847" lon="1.97157">
        <ele>159.39</ele>
        <time>2020-05-28T11:05:25.302Z</time>
      </trkpt>
      <trkpt lat="44.53856" lon="1.97171">
        <ele>160.39</ele>
        <time>2020-05-28T11:05:36.000Z</time>
      </trkpt>
      <trkpt lat="44.53873" lon="1.97222">
        <ele>163.4</ele>
        <time>2020-05-28T11:05:45.859Z</time>
      </trkpt>
      <trkpt lat="44.53884" lon="1.97253">
        <ele>164.34</ele>
        <time>2020-05-28T11:05:55.000Z</time>
      </trkpt>
      <trkpt lat="44.53896" lon="1.97287">
        <ele>166.34</ele>
        <time>2020-05-28T11:06:05.000Z</time>
      </trkpt>
      <trkpt lat="44.53901" lon="1.97302">
        <ele>168.16</ele>
        <time>2020-05-28T11:06:15.000Z</time>
      </trkpt>
      <trkpt lat="44.53907" lon="1.97309">
        <ele>165.47</ele>
        <time>2020-05-28T11:06:25.000Z</time>
      </trkpt>
      <trkpt lat="44.53921" lon="1.97354">
        <ele>165.4</ele>
        <time>2020-05-28T11:06:35.000Z</time>
      </trkpt>
      <trkpt lat="44.53941" lon="1.97408">
        <ele>165.64</ele>
        <time>2020-05-28T11:06:44.673Z</time>
      </trkpt>
      <trkpt lat="44.53964" lon="1.9747">
        <ele>166.16</ele>
        <time>2020-05-28T11:06:54.000Z</time>
      </trkpt>
      <trkpt lat="44.53991" lon="1.97535">
        <ele>168.15</ele>
        <time>2020-05-28T11:07:04.000Z</time>
      </trkpt>
      <trkpt lat="44.54015" lon="1.97601">
        <ele>165.34</ele>
        <time>2020-05-28T11:07:14.000Z</time>
      </trkpt>
      <trkpt lat="44.54047" lon="1.97665">
        <ele>165.4</ele>
        <time>2020-05-28T11:07:24.000Z</time>
      </trkpt>
      <trkpt lat="44.54078" lon="1.97715">
        <ele>162.42</ele>
        <time>2020-05-28T11:07:34.000Z</time>
      </trkpt>
      <trkpt lat="44.5411" lon="1.9777">
        <ele>164.14</ele>
        <time>2020-05-28T11:07:44.000Z</time>
      </trkpt>
      <trkpt lat="44.54141" lon="1.9782">
        <ele>163.34</ele>
        <time>2020-05-28T11:07:54.000Z</time>
      </trkpt>
      <trkpt lat="44.54179" lon="1.97867">
        <ele>164.46</ele>
        <time>2020-05-28T11:08:04.000Z</time>
      </trkpt>
      <trkpt lat="44.54212" lon="1.979">
        <ele>168.46</ele>
        <time>2020-05-28T11:08:14.000Z</time>
      </trkpt>
      <trkpt lat="44.54257" lon="1.97937">
        <ele>169.39</ele>
        <time>2020-05-28T11:08:24.000Z</time>
      </trkpt>
      <trkpt lat="44.54298" lon="1.97973">
        <ele>167.41</ele>
        <time>2020-05-28T11:08:34.000Z</time>
      </trkpt>
      <trkpt lat="44.54317" lon="1.97997">
        <ele>168.38</ele>
        <time>2020-05-28T11:08:44.000Z</time>
      </trkpt>
      <trkpt lat="44.54327" lon="1.98022">
        <ele>167.4</ele>
        <time>2020-05-28T11:08:54.000Z</time>
      </trkpt>
      <trkpt lat="44.54392" lon="1.98066">
        <ele>168.39</ele>
        <time>2020-05-28T11:09:04.000Z</time>
      </trkpt>
      <trkpt lat="44.54438" lon="1.98094">
        <ele>164.66</ele>
        <time>2020-05-28T11:09:14.000Z</time>
      </trkpt>
      <trkpt lat="44.54474" lon="1.98113">
        <ele>164.33</ele>
        <time>2020-05-28T11:09:23.237Z</time>
      </trkpt>
      <trkpt lat="44.54506" lon="1.98129">
        <ele>163.45</ele>
        <time>2020-05-28T11:09:33.000Z</time>
      </trkpt>
      <trkpt lat="44.54545" lon="1.98161">
        <ele>165.14</ele>
        <time>2020-05-28T11:09:42.347Z</time>
      </trkpt>
      <trkpt lat="44.54584" lon="1.98195">
        <ele>164.39</ele>
        <time>2020-05-28T11:09:52.000Z</time>
      </trkpt>
      <trkpt lat="44.54612" lon="1.98223">
        <ele>166.39</ele>
        <time>2020-05-28T11:10:01.069Z</time>
      </trkpt>
      <trkpt lat="44.54645" lon="1.98257">
        <ele>165.38</ele>
        <time>2020-05-28T11:10:10.071Z</time>
      </trkpt>
      <trkpt lat="44.54682" lon="1.98294">
        <ele>165.39</ele>
        <time>2020-05-28T11:10:20.000Z</time>
      </trkpt>
      <trkpt lat="44.54725" lon="1.98325">
        <ele>167.39</ele>
        <time>2020-05-28T11:10:29.746Z</time>
      </trkpt>
      <trkpt lat="44.54753" lon="1.98352">
        <ele>167.39</ele>
        <time>2020-05-28T11:10:40.000Z</time>
      </trkpt>
      <trkpt lat="44.54788" lon="1.98377">
        <ele>168.32</ele>
        <time>2020-05-28T11:10:49.094Z</time>
      </trkpt>
      <trkpt lat="44.54825" lon="1.9841">
        <ele>173.39</ele>
        <time>2020-05-28T11:10:58.380Z</time>
      </trkpt>
      <trkpt lat="44.54861" lon="1.98442">
        <ele>175.45</ele>
        <time>2020-05-28T11:11:08.000Z</time>
      </trkpt>
      <trkpt lat="44.54895" lon="1.98467">
        <ele>176.37</ele>
        <time>2020-05-28T11:11:18.000Z</time>
      </trkpt>
      <trkpt lat="44.54938" lon="1.98513">
        <ele>167.44</ele>
        <time>2020-05-28T11:11:28.000Z</time>
      </trkpt>
      <trkpt lat="44.54965" lon="1.9855">
        <ele>169.14</ele>
        <time>2020-05-28T11:11:38.031Z</time>
      </trkpt>
      <trkpt lat="44.54997" lon="1.98582">
        <ele>172.38</ele>
        <time>2020-05-28T11:11:48.067Z</time>
      </trkpt>
      <trkpt lat="44.55029" lon="1.98614">
        <ele>172.39</ele>
        <time>2020-05-28T11:11:57.414Z</time>
      </trkpt>
      <trkpt lat="44.55056" lon="1.98644">
        <ele>172.39</ele>
        <time>2020-05-28T11:12:07.000Z</time>
      </trkpt>
      <trkpt lat="44.55089" lon="1.98677">
        <ele>173.38</ele>
        <time>2020-05-28T11:12:18.000Z</time>
      </trkpt>
      <trkpt lat="44.55134" lon="1.98701">
        <ele>173.2</ele>
        <time>2020-05-28T11:12:28.000Z</time>
      </trkpt>
      <trkpt lat="44.55173" lon="1.98715">
        <ele>172.39</ele>
        <time>2020-05-28T11:12:38.000Z</time>
      </trkpt>
      <trkpt lat="44.55209" lon="1.98732">
        <ele>172.39</ele>
        <time>2020-05-28T11:12:48.000Z</time>
      </trkpt>
      <trkpt lat="44.55256" lon="1.98745">
        <ele>171.38</ele>
        <time>2020-05-28T11:12:57.277Z</time>
      </trkpt>
      <trkpt lat="44.55286" lon="1.9875">
        <ele>172.63</ele>
        <time>2020-05-28T11:13:07.000Z</time>
      </trkpt>
      <trkpt lat="44.55335" lon="1.98773">
        <ele>169.63</ele>
        <time>2020-05-28T11:13:16.514Z</time>
      </trkpt>
      <trkpt lat="44.55369" lon="1.98794">
        <ele>169.32</ele>
        <time>2020-05-28T11:13:25.523Z</time>
      </trkpt>
      <trkpt lat="44.554" lon="1.98813">
        <ele>169.38</ele>
        <time>2020-05-28T11:13:35.266Z</time>
      </trkpt>
      <trkpt lat="44.55421" lon="1.98823">
        <ele>170.38</ele>
        <time>2020-05-28T11:13:45.000Z</time>
      </trkpt>
      <trkpt lat="44.55447" lon="1.9884">
        <ele>170.57</ele>
        <time>2020-05-28T11:13:55.000Z</time>
      </trkpt>
      <trkpt lat="44.55462" lon="1.98818">
        <ele>171.37</ele>
        <time>2020-05-28T11:14:05.000Z</time>
      </trkpt>
      <trkpt lat="44.55495" lon="1.98802">
        <ele>172.38</ele>
        <time>2020-05-28T11:14:15.000Z</time>
      </trkpt>
      <trkpt lat="44.55521" lon="1.98781">
        <ele>174.38</ele>
        <time>2020-05-28T11:14:24.487Z</time>
      </trkpt>
      <trkpt lat="44.55544" lon="1.98773">
        <ele>174.38</ele>
        <time>2020-05-28T11:14:34.000Z</time>
      </trkpt>
      <trkpt lat="44.5558" lon="1.98775">
        <ele>176.38</ele>
        <time>2020-05-28T11:14:44.000Z</time>
      </trkpt>
      <trkpt lat="44.55607" lon="1.98732">
        <ele>178.38</ele>
        <time>2020-05-28T11:14:54.000Z</time>
      </trkpt>
      <trkpt lat="44.55627" lon="1.98705">
        <ele>182.32</ele>
        <time>2020-05-28T11:15:03.083Z</time>
      </trkpt>
      <trkpt lat="44.55656" lon="1.98696">
        <ele>184.14</ele>
        <time>2020-05-28T11:15:13.000Z</time>
      </trkpt>
      <trkpt lat="44.55685" lon="1.9869">
        <ele>186.14</ele>
        <time>2020-05-28T11:15:23.000Z</time>
      </trkpt>
      <trkpt lat="44.55711" lon="1.98687">
        <ele>187.39</ele>
        <time>2020-05-28T11:15:33.000Z</time>
      </trkpt>
      <trkpt lat="44.5574" lon="1.98688">
        <ele>189.37</ele>
        <time>2020-05-28T11:15:42.079Z</time>
      </trkpt>
      <trkpt lat="44.55767" lon="1.98682">
        <ele>191.14</ele>
        <time>2020-05-28T11:15:53.000Z</time>
      </trkpt>
      <trkpt lat="44.55789" lon="1.98655">
        <ele>195.38</ele>
        <time>2020-05-28T11:16:03.000Z</time>
      </trkpt>
      <trkpt lat="44.55808" lon="1.98621">
        <ele>200.38</ele>
        <time>2020-05-28T11:16:12.311Z</time>
      </trkpt>
      <trkpt lat="44.55816" lon="1.98585">
        <ele>204.37</ele>
        <time>2020-05-28T11:16:21.352Z</time>
      </trkpt>
      <trkpt lat="44.55828" lon="1.98543">
        <ele>206.39</ele>
        <time>2020-05-28T11:16:31.065Z</time>
      </trkpt>
      <trkpt lat="44.55845" lon="1.98513">
        <ele>199.48</ele>
        <time>2020-05-28T11:16:41.000Z</time>
      </trkpt>
      <trkpt lat="44.55879" lon="1.98508">
        <ele>199.14</ele>
        <time>2020-05-28T11:16:51.000Z</time>
      </trkpt>
      <trkpt lat="44.55903" lon="1.98461">
        <ele>199.37</ele>
        <time>2020-05-28T11:17:01.000Z</time>
      </trkpt>
      <trkpt lat="44.55917" lon="1.98429">
        <ele>202.33</ele>
        <time>2020-05-28T11:17:10.096Z</time>
      </trkpt>
      <trkpt lat="44.55929" lon="1.98398">
        <ele>203.39</ele>
        <time>2020-05-28T11:17:19.786Z</time>
      </trkpt>
      <trkpt lat="44.5594" lon="1.98369">
        <ele>205.39</ele>
        <time>2020-05-28T11:17:29.000Z</time>
      </trkpt>
      <trkpt lat="44.55953" lon="1.98342">
        <ele>208.33</ele>
        <time>2020-05-28T11:17:39.000Z</time>
      </trkpt>
      <trkpt lat="44.55966" lon="1.98317">
        <ele>210.39</ele>
        <time>2020-05-28T11:17:49.000Z</time>
      </trkpt>
      <trkpt lat="44.55975" lon="1.98298">
        <ele>212.39</ele>
        <time>2020-05-28T11:17:59.000Z</time>
      </trkpt>
      <trkpt lat="44.55994" lon="1.98266">
        <ele>215.39</ele>
        <time>2020-05-28T11:18:08.385Z</time>
      </trkpt>
      <trkpt lat="44.56015" lon="1.98258">
        <ele>216.39</ele>
        <time>2020-05-28T11:18:18.000Z</time>
      </trkpt>
      <trkpt lat="44.5603" lon="1.98262">
        <ele>219.13</ele>
        <time>2020-05-28T11:18:28.000Z</time>
      </trkpt>
      <trkpt lat="44.56056" lon="1.98264">
        <ele>221.39</ele>
        <time>2020-05-28T11:18:37.465Z</time>
      </trkpt>
      <trkpt lat="44.56083" lon="1.98256">
        <ele>224.13</ele>
        <time>2020-05-28T11:18:47.000Z</time>
      </trkpt>
      <trkpt lat="44.56098" lon="1.98237">
        <ele>224.39</ele>
        <time>2020-05-28T11:18:57.000Z</time>
      </trkpt>
      <trkpt lat="44.56129" lon="1.98216">
        <ele>225.64</ele>
        <time>2020-05-28T11:19:08.000Z</time>
      </trkpt>
      <trkpt lat="44.56156" lon="1.98221">
        <ele>225.41</ele>
        <time>2020-05-28T11:19:17.075Z</time>
      </trkpt>
      <trkpt lat="44.5618" lon="1.98233">
        <ele>228.14</ele>
        <time>2020-05-28T11:19:27.000Z</time>
      </trkpt>
      <trkpt lat="44.56206" lon="1.98239">
        <ele>229.38</ele>
        <time>2020-05-28T11:19:37.000Z</time>
      </trkpt>
      <trkpt lat="44.56234" lon="1.98235">
        <ele>233.14</ele>
        <time>2020-05-28T11:19:47.000Z</time>
      </trkpt>
      <trkpt lat="44.5625" lon="1.98197">
        <ele>234.39</ele>
        <time>2020-05-28T11:19:57.000Z</time>
      </trkpt>
      <trkpt lat="44.56257" lon="1.98164">
        <ele>232.64</ele>
        <time>2020-05-28T11:20:07.086Z</time>
      </trkpt>
      <trkpt lat="44.56259" lon="1.98143">
        <ele>234.38</ele>
        <time>2020-05-28T11:20:17.257Z</time>
      </trkpt>
      <trkpt lat="44.56253" lon="1.98112">
        <ele>235.39</ele>
        <time>2020-05-28T11:20:27.000Z</time>
      </trkpt>
      <trkpt lat="44.56242" lon="1.98083">
        <ele>237.38</ele>
        <time>2020-05-28T11:20:36.252Z</time>
      </trkpt>
      <trkpt lat="44.5623" lon="1.98046">
        <ele>238.4</ele>
        <time>2020-05-28T11:20:47.000Z</time>
      </trkpt>
      <trkpt lat="44.56223" lon="1.98013">
        <ele>243.26</ele>
        <time>2020-05-28T11:20:56.875Z</time>
      </trkpt>
      <trkpt lat="44.56252" lon="1.98011">
        <ele>250.38</ele>
        <time>2020-05-28T11:21:06.000Z</time>
      </trkpt>
      <trkpt lat="44.56277" lon="1.98014">
        <ele>252.4</ele>
        <time>2020-05-28T11:21:15.559Z</time>
      </trkpt>
      <trkpt lat="44.56302" lon="1.98019">
        <ele>256.13</ele>
        <time>2020-05-28T11:21:25.000Z</time>
      </trkpt>
      <trkpt lat="44.56334" lon="1.98029">
        <ele>261.13</ele>
        <time>2020-05-28T11:21:35.000Z</time>
      </trkpt>
      <trkpt lat="44.56378" lon="1.98062">
        <ele>263.38</ele>
        <time>2020-05-28T11:21:45.075Z</time>
      </trkpt>
      <trkpt lat="44.56402" lon="1.98122">
        <ele>265.15</ele>
        <time>2020-05-28T11:21:55.000Z</time>
      </trkpt>
      <trkpt lat="44.56424" lon="1.98189">
        <ele>268.39</ele>
        <time>2020-05-28T11:22:05.069Z</time>
      </trkpt>
      <trkpt lat="44.56425" lon="1.98249">
        <ele>271.12</ele>
        <time>2020-05-28T11:22:15.000Z</time>
      </trkpt>
      <trkpt lat="44.5641" lon="1.98325">
        <ele>281.06</ele>
        <time>2020-05-28T11:22:25.000Z</time>
      </trkpt>
      <trkpt lat="44.56411" lon="1.9839">
        <ele>282.39</ele>
        <time>2020-05-28T11:22:35.000Z</time>
      </trkpt>
      <trkpt lat="44.56429" lon="1.98454">
        <ele>284.14</ele>
        <time>2020-05-28T11:22:45.000Z</time>
      </trkpt>
      <trkpt lat="44.56448" lon="1.98522">
        <ele>287.63</ele>
        <time>2020-05-28T11:22:55.000Z</time>
      </trkpt>
      <trkpt lat="44.56452" lon="1.98594">
        <ele>287.39</ele>
        <time>2020-05-28T11:23:05.000Z</time>
      </trkpt>
      <trkpt lat="44.56447" lon="1.98677">
        <ele>287.62</ele>
        <time>2020-05-28T11:23:15.000Z</time>
      </trkpt>
      <trkpt lat="44.56413" lon="1.98739">
        <ele>292.38</ele>
        <time>2020-05-28T11:23:25.000Z</time>
      </trkpt>
      <trkpt lat="44.56368" lon="1.98772">
        <ele>296.13</ele>
        <time>2020-05-28T11:23:35.000Z</time>
      </trkpt>
      <trkpt lat="44.56353" lon="1.98785">
        <ele>295.38</ele>
        <time>2020-05-28T11:23:45.000Z</time>
      </trkpt>
      <trkpt lat="44.56347" lon="1.98786">
        <ele>296.38</ele>
        <time>2020-05-28T11:23:55.000Z</time>
      </trkpt>
      <trkpt lat="44.56346" lon="1.98785">
        <ele>296.19</ele>
        <time>2020-05-28T11:24:05.000Z</time>
      </trkpt>
      <trkpt lat="44.56349" lon="1.98783">
        <ele>296.13</ele>
        <time>2020-05-28T11:24:15.000Z</time>
      </trkpt>
      <trkpt lat="44.56357" lon="1.98783">
        <ele>295.15</ele>
        <time>2020-05-28T11:24:24.217Z</time>
      </trkpt>
      <trkpt lat="44.56353" lon="1.98779">
        <ele>293.39</ele>
        <time>2020-05-28T11:24:34.000Z</time>
      </trkpt>
      <trkpt lat="44.56355" lon="1.9877">
        <ele>294.32</ele>
        <time>2020-05-28T11:24:44.000Z</time>
      </trkpt>
      <trkpt lat="44.56362" lon="1.98771">
        <ele>293.45</ele>
        <time>2020-05-28T11:24:54.000Z</time>
      </trkpt>
      <trkpt lat="44.56358" lon="1.98773">
        <ele>293.15</ele>
        <time>2020-05-28T11:25:04.000Z</time>
      </trkpt>
      <trkpt lat="44.56351" lon="1.98774">
        <ele>293.38</ele>
        <time>2020-05-28T11:25:14.000Z</time>
      </trkpt>
      <trkpt lat="44.56352" lon="1.98773">
        <ele>292.38</ele>
        <time>2020-05-28T11:25:24.000Z</time>
      </trkpt>
      <trkpt lat="44.56355" lon="1.9877">
        <ele>304.88</ele>
        <time>2020-05-28T11:25:34.000Z</time>
      </trkpt>
      <trkpt lat="44.56358" lon="1.98772">
        <ele>304.88</ele>
        <time>2020-05-28T11:25:45.000Z</time>
      </trkpt>
      <trkpt lat="44.56357" lon="1.98774">
        <ele>304.88</ele>
        <time>2020-05-28T11:25:51.000Z</time>
      </trkpt>
    </trkseg>
  </trk>
</gpx>